<?xml version="1.0" encoding="UTF-8" standalone="no" ?>
<gpx xmlns="http://www.topografix.com/GPX/1/1" xmlns:xsi="http://www.w3.org/2001/XMLSchema-instance" xsi:schemaLocation="http://www.topografix.com/GPX/1/1 http://www.topografix.com/GPX/1/1/gpx.xsd" version="1.1" creator="VisuGPX - https://www.visugpx.com">
  <metadata>
    <name>TOTAL 4x4 </name>
  </metadata>
  <wpt lat="42.36368" lon="2.84007">
    <ele>181</ele>
  </wpt>
  <wpt lat="42.36397" lon="2.83975">
    <ele>185.2</ele>
  </wpt>
  <wpt lat="42.36387" lon="2.83877">
    <ele>193</ele>
  </wpt>
  <wpt lat="42.36443" lon="2.83943">
    <ele>186.6</ele>
  </wpt>
  <wpt lat="42.2714" lon="2.52859">
    <ele>415.7</ele>
  </wpt>
  <wpt lat="42.27123" lon="2.52776">
    <ele>417.3</ele>
  </wpt>
  <wpt lat="42.27143" lon="2.53029">
    <ele>408.8</ele>
  </wpt>
  <trk>
    <name><![CDATA[TOTAL 4x4 _26]]></name>
    <extensions>
      <line xmlns="http://www.topografix.com/GPX/gpx_style/0/2">
        <color>00FF00</color>
        <width>4</width>
      </line>
    </extensions>
    <trkseg>
      <trkpt lat="43.04979" lon="-1.21173">
        <ele>998.44</ele>
        <time>2021-08-05T14:54:11Z</time>
      </trkpt>
      <trkpt lat="43.05007" lon="-1.21176">
        <ele>997.02</ele>
        <time>2021-08-05T14:54:14Z</time>
      </trkpt>
      <trkpt lat="43.05092" lon="-1.21158">
        <ele>998.38</ele>
        <time>2021-08-05T14:54:25Z</time>
      </trkpt>
      <trkpt lat="43.0516" lon="-1.21187">
        <ele>1001.28</ele>
        <time>2021-08-05T14:54:35Z</time>
      </trkpt>
      <trkpt lat="43.05207" lon="-1.21209">
        <ele>1000.54</ele>
        <time>2021-08-05T14:54:44Z</time>
      </trkpt>
      <trkpt lat="43.05296" lon="-1.21251">
        <ele>998.09</ele>
        <time>2021-08-05T14:54:57Z</time>
      </trkpt>
      <trkpt lat="43.05327" lon="-1.21266">
        <ele>996.79</ele>
        <time>2021-08-05T14:55:01Z</time>
      </trkpt>
      <trkpt lat="43.05394" lon="-1.21338">
        <ele>993.18</ele>
        <time>2021-08-05T14:55:11Z</time>
      </trkpt>
      <trkpt lat="43.054" lon="-1.21345">
        <ele>992.79</ele>
        <time>2021-08-05T14:55:12Z</time>
      </trkpt>
      <trkpt lat="43.05414" lon="-1.21378">
        <ele>990.97</ele>
        <time>2021-08-05T14:55:16Z</time>
      </trkpt>
      <trkpt lat="43.05415" lon="-1.21436">
        <ele>987.67</ele>
        <time>2021-08-05T14:55:23Z</time>
      </trkpt>
      <trkpt lat="43.05421" lon="-1.21456">
        <ele>984.09</ele>
        <time>2021-08-05T14:55:31Z</time>
      </trkpt>
      <trkpt lat="43.05436" lon="-1.21446">
        <ele>983.09</ele>
        <time>2021-08-05T14:55:35Z</time>
      </trkpt>
      <trkpt lat="43.05495" lon="-1.21381">
        <ele>981.72</ele>
        <time>2021-08-05T14:55:42Z</time>
      </trkpt>
      <trkpt lat="43.05554" lon="-1.21381">
        <ele>979.35</ele>
        <time>2021-08-05T14:55:47Z</time>
      </trkpt>
      <trkpt lat="43.05604" lon="-1.21391">
        <ele>976.14</ele>
        <time>2021-08-05T14:55:51Z</time>
      </trkpt>
      <trkpt lat="43.05643" lon="-1.21399">
        <ele>972.38</ele>
        <time>2021-08-05T14:55:55Z</time>
      </trkpt>
      <trkpt lat="43.0566" lon="-1.21404">
        <ele>968.86</ele>
        <time>2021-08-05T14:55:58Z</time>
      </trkpt>
      <trkpt lat="43.05677" lon="-1.21409">
        <ele>965.81</ele>
        <time>2021-08-05T14:56:01Z</time>
      </trkpt>
      <trkpt lat="43.05704" lon="-1.21414">
        <ele>962.29</ele>
        <time>2021-08-05T14:56:05Z</time>
      </trkpt>
      <trkpt lat="43.05724" lon="-1.21417">
        <ele>958.72</ele>
        <time>2021-08-05T14:56:08Z</time>
      </trkpt>
      <trkpt lat="43.05773" lon="-1.21426">
        <ele>955.58</ele>
        <time>2021-08-05T14:56:15Z</time>
      </trkpt>
      <trkpt lat="43.05791" lon="-1.21432">
        <ele>954.02</ele>
        <time>2021-08-05T14:56:18Z</time>
      </trkpt>
      <trkpt lat="43.05817" lon="-1.21404">
        <ele>949.81</ele>
        <time>2021-08-05T14:56:25Z</time>
      </trkpt>
      <trkpt lat="43.05815" lon="-1.21387">
        <ele>948.78</ele>
        <time>2021-08-05T14:56:27Z</time>
      </trkpt>
      <trkpt lat="43.05813" lon="-1.21369">
        <ele>948.12</ele>
        <time>2021-08-05T14:56:29Z</time>
      </trkpt>
      <trkpt lat="43.05836" lon="-1.21321">
        <ele>945.34</ele>
        <time>2021-08-05T14:56:36Z</time>
      </trkpt>
      <trkpt lat="43.05855" lon="-1.21296">
        <ele>944</ele>
        <time>2021-08-05T14:56:39Z</time>
      </trkpt>
      <trkpt lat="43.0588" lon="-1.21254">
        <ele>940.59</ele>
        <time>2021-08-05T14:56:44Z</time>
      </trkpt>
      <trkpt lat="43.05884" lon="-1.212">
        <ele>937.51</ele>
        <time>2021-08-05T14:56:51Z</time>
      </trkpt>
      <trkpt lat="43.05863" lon="-1.21136">
        <ele>932.63</ele>
        <time>2021-08-05T14:56:58Z</time>
      </trkpt>
      <trkpt lat="43.05861" lon="-1.2108">
        <ele>929.38</ele>
        <time>2021-08-05T14:57:03Z</time>
      </trkpt>
      <trkpt lat="43.05863" lon="-1.21057">
        <ele>928.05</ele>
        <time>2021-08-05T14:57:05Z</time>
      </trkpt>
      <trkpt lat="43.05859" lon="-1.21013">
        <ele>925.31</ele>
        <time>2021-08-05T14:57:09Z</time>
      </trkpt>
      <trkpt lat="43.05874" lon="-1.2097">
        <ele>921.83</ele>
        <time>2021-08-05T14:57:14Z</time>
      </trkpt>
      <trkpt lat="43.05887" lon="-1.20954">
        <ele>920.53</ele>
        <time>2021-08-05T14:57:16Z</time>
      </trkpt>
      <trkpt lat="43.05925" lon="-1.20929">
        <ele>917.96</ele>
        <time>2021-08-05T14:57:20Z</time>
      </trkpt>
      <trkpt lat="43.05969" lon="-1.20906">
        <ele>914.53</ele>
        <time>2021-08-05T14:57:25Z</time>
      </trkpt>
      <trkpt lat="43.0599" lon="-1.20959">
        <ele>911.09</ele>
        <time>2021-08-05T14:57:30Z</time>
      </trkpt>
      <trkpt lat="43.06001" lon="-1.21034">
        <ele>908.09</ele>
        <time>2021-08-05T14:57:34Z</time>
      </trkpt>
      <trkpt lat="43.06008" lon="-1.211">
        <ele>906.04</ele>
        <time>2021-08-05T14:57:37Z</time>
      </trkpt>
      <trkpt lat="43.06037" lon="-1.21151">
        <ele>901.64</ele>
        <time>2021-08-05T14:57:41Z</time>
      </trkpt>
      <trkpt lat="43.06063" lon="-1.21158">
        <ele>898.99</ele>
        <time>2021-08-05T14:57:43Z</time>
      </trkpt>
      <trkpt lat="43.06109" lon="-1.21192">
        <ele>894.19</ele>
        <time>2021-08-05T14:57:47Z</time>
      </trkpt>
      <trkpt lat="43.06125" lon="-1.21232">
        <ele>890.38</ele>
        <time>2021-08-05T14:57:50Z</time>
      </trkpt>
      <trkpt lat="43.0612" lon="-1.21272">
        <ele>886.74</ele>
        <time>2021-08-05T14:57:53Z</time>
      </trkpt>
      <trkpt lat="43.06109" lon="-1.21312">
        <ele>883.11</ele>
        <time>2021-08-05T14:57:56Z</time>
      </trkpt>
      <trkpt lat="43.06102" lon="-1.21358">
        <ele>879.88</ele>
        <time>2021-08-05T14:57:59Z</time>
      </trkpt>
      <trkpt lat="43.06097" lon="-1.21373">
        <ele>879.03</ele>
        <time>2021-08-05T14:58:00Z</time>
      </trkpt>
      <trkpt lat="43.061" lon="-1.21466">
        <ele>873.69</ele>
        <time>2021-08-05T14:58:06Z</time>
      </trkpt>
      <trkpt lat="43.0613" lon="-1.21501">
        <ele>870</ele>
        <time>2021-08-05T14:58:09Z</time>
      </trkpt>
      <trkpt lat="43.06159" lon="-1.21552">
        <ele>865.35</ele>
        <time>2021-08-05T14:58:13Z</time>
      </trkpt>
      <trkpt lat="43.06195" lon="-1.21565">
        <ele>860.39</ele>
        <time>2021-08-05T14:58:17Z</time>
      </trkpt>
      <trkpt lat="43.06214" lon="-1.21551">
        <ele>858.07</ele>
        <time>2021-08-05T14:58:19Z</time>
      </trkpt>
      <trkpt lat="43.06276" lon="-1.2152">
        <ele>853.08</ele>
        <time>2021-08-05T14:58:24Z</time>
      </trkpt>
      <trkpt lat="43.06314" lon="-1.21499">
        <ele>849.91</ele>
        <time>2021-08-05T14:58:27Z</time>
      </trkpt>
      <trkpt lat="43.06338" lon="-1.2149">
        <ele>847.82</ele>
        <time>2021-08-05T14:58:29Z</time>
      </trkpt>
      <trkpt lat="43.06366" lon="-1.21495">
        <ele>843.2</ele>
        <time>2021-08-05T14:58:32Z</time>
      </trkpt>
      <trkpt lat="43.06379" lon="-1.21515">
        <ele>840.94</ele>
        <time>2021-08-05T14:58:34Z</time>
      </trkpt>
      <trkpt lat="43.06416" lon="-1.21594">
        <ele>836.38</ele>
        <time>2021-08-05T14:58:39Z</time>
      </trkpt>
      <trkpt lat="43.06452" lon="-1.21662">
        <ele>832.22</ele>
        <time>2021-08-05T14:58:43Z</time>
      </trkpt>
      <trkpt lat="43.06482" lon="-1.21717">
        <ele>828.77</ele>
        <time>2021-08-05T14:58:46Z</time>
      </trkpt>
      <trkpt lat="43.06509" lon="-1.2177">
        <ele>824.58</ele>
        <time>2021-08-05T14:58:49Z</time>
      </trkpt>
      <trkpt lat="43.06527" lon="-1.21807">
        <ele>821.45</ele>
        <time>2021-08-05T14:58:51Z</time>
      </trkpt>
      <trkpt lat="43.06554" lon="-1.21861">
        <ele>817.19</ele>
        <time>2021-08-05T14:58:54Z</time>
      </trkpt>
      <trkpt lat="43.06568" lon="-1.21898">
        <ele>814.05</ele>
        <time>2021-08-05T14:58:56Z</time>
      </trkpt>
      <trkpt lat="43.06582" lon="-1.21932">
        <ele>810.78</ele>
        <time>2021-08-05T14:58:58Z</time>
      </trkpt>
      <trkpt lat="43.06597" lon="-1.21962">
        <ele>807.71</ele>
        <time>2021-08-05T14:59:00Z</time>
      </trkpt>
      <trkpt lat="43.06623" lon="-1.22007">
        <ele>803.39</ele>
        <time>2021-08-05T14:59:03Z</time>
      </trkpt>
      <trkpt lat="43.0665" lon="-1.22056">
        <ele>799.11</ele>
        <time>2021-08-05T14:59:06Z</time>
      </trkpt>
      <trkpt lat="43.06677" lon="-1.22111">
        <ele>795.29</ele>
        <time>2021-08-05T14:59:09Z</time>
      </trkpt>
      <trkpt lat="43.06702" lon="-1.22163">
        <ele>791.04</ele>
        <time>2021-08-05T14:59:12Z</time>
      </trkpt>
      <trkpt lat="43.06712" lon="-1.22195">
        <ele>787.93</ele>
        <time>2021-08-05T14:59:14Z</time>
      </trkpt>
      <trkpt lat="43.06717" lon="-1.22218">
        <ele>784.86</ele>
        <time>2021-08-05T14:59:16Z</time>
      </trkpt>
      <trkpt lat="43.06718" lon="-1.22225">
        <ele>783.33</ele>
        <time>2021-08-05T14:59:17Z</time>
      </trkpt>
      <trkpt lat="43.06727" lon="-1.22221">
        <ele>778.17</ele>
        <time>2021-08-05T14:59:21Z</time>
      </trkpt>
      <trkpt lat="43.06725" lon="-1.22203">
        <ele>776.38</ele>
        <time>2021-08-05T14:59:23Z</time>
      </trkpt>
      <trkpt lat="43.06708" lon="-1.22099">
        <ele>772.69</ele>
        <time>2021-08-05T14:59:29Z</time>
      </trkpt>
      <trkpt lat="43.06698" lon="-1.22014">
        <ele>769.67</ele>
        <time>2021-08-05T14:59:33Z</time>
      </trkpt>
      <trkpt lat="43.06686" lon="-1.21942">
        <ele>765.54</ele>
        <time>2021-08-05T14:59:37Z</time>
      </trkpt>
      <trkpt lat="43.06678" lon="-1.21885">
        <ele>761.89</ele>
        <time>2021-08-05T14:59:40Z</time>
      </trkpt>
      <trkpt lat="43.06667" lon="-1.21833">
        <ele>757.76</ele>
        <time>2021-08-05T14:59:43Z</time>
      </trkpt>
      <trkpt lat="43.06658" lon="-1.21779">
        <ele>753.65</ele>
        <time>2021-08-05T14:59:46Z</time>
      </trkpt>
      <trkpt lat="43.06652" lon="-1.21724">
        <ele>749.67</ele>
        <time>2021-08-05T14:59:49Z</time>
      </trkpt>
      <trkpt lat="43.0665" lon="-1.21668">
        <ele>745.49</ele>
        <time>2021-08-05T14:59:52Z</time>
      </trkpt>
      <trkpt lat="43.06644" lon="-1.21612">
        <ele>741.23</ele>
        <time>2021-08-05T14:59:55Z</time>
      </trkpt>
      <trkpt lat="43.06638" lon="-1.21582">
        <ele>738.12</ele>
        <time>2021-08-05T14:59:57Z</time>
      </trkpt>
      <trkpt lat="43.06628" lon="-1.21537">
        <ele>733.68</ele>
        <time>2021-08-05T15:00:00Z</time>
      </trkpt>
      <trkpt lat="43.06622" lon="-1.21488">
        <ele>729.46</ele>
        <time>2021-08-05T15:00:03Z</time>
      </trkpt>
      <trkpt lat="43.06619" lon="-1.21458">
        <ele>726.66</ele>
        <time>2021-08-05T15:00:05Z</time>
      </trkpt>
      <trkpt lat="43.06625" lon="-1.21399">
        <ele>721.46</ele>
        <time>2021-08-05T15:00:09Z</time>
      </trkpt>
      <trkpt lat="43.0663" lon="-1.21369">
        <ele>717.53</ele>
        <time>2021-08-05T15:00:11Z</time>
      </trkpt>
      <trkpt lat="43.06637" lon="-1.21336">
        <ele>713.83</ele>
        <time>2021-08-05T15:00:14Z</time>
      </trkpt>
      <trkpt lat="43.06638" lon="-1.21323">
        <ele>711.29</ele>
        <time>2021-08-05T15:00:16Z</time>
      </trkpt>
      <trkpt lat="43.06639" lon="-1.21302">
        <ele>708.36</ele>
        <time>2021-08-05T15:00:19Z</time>
      </trkpt>
      <trkpt lat="43.06626" lon="-1.21255">
        <ele>704.91</ele>
        <time>2021-08-05T15:00:23Z</time>
      </trkpt>
      <trkpt lat="43.066" lon="-1.21177">
        <ele>701.2</ele>
        <time>2021-08-05T15:00:28Z</time>
      </trkpt>
      <trkpt lat="43.06593" lon="-1.21164">
        <ele>700.23</ele>
        <time>2021-08-05T15:00:29Z</time>
      </trkpt>
      <trkpt lat="43.06557" lon="-1.21126">
        <ele>696.04</ele>
        <time>2021-08-05T15:00:33Z</time>
      </trkpt>
      <trkpt lat="43.06536" lon="-1.21077">
        <ele>692.01</ele>
        <time>2021-08-05T15:00:37Z</time>
      </trkpt>
      <trkpt lat="43.06524" lon="-1.21034">
        <ele>688.74</ele>
        <time>2021-08-05T15:00:40Z</time>
      </trkpt>
      <trkpt lat="43.06501" lon="-1.20989">
        <ele>685.42</ele>
        <time>2021-08-05T15:00:43Z</time>
      </trkpt>
      <trkpt lat="43.06486" lon="-1.20964">
        <ele>683</ele>
        <time>2021-08-05T15:00:45Z</time>
      </trkpt>
      <trkpt lat="43.06463" lon="-1.20943">
        <ele>679.04</ele>
        <time>2021-08-05T15:00:48Z</time>
      </trkpt>
      <trkpt lat="43.06455" lon="-1.20894">
        <ele>674.55</ele>
        <time>2021-08-05T15:00:52Z</time>
      </trkpt>
      <trkpt lat="43.06454" lon="-1.20805">
        <ele>669.6</ele>
        <time>2021-08-05T15:00:57Z</time>
      </trkpt>
      <trkpt lat="43.06453" lon="-1.20786">
        <ele>668.57</ele>
        <time>2021-08-05T15:00:58Z</time>
      </trkpt>
      <trkpt lat="43.06441" lon="-1.20713">
        <ele>663.9</ele>
        <time>2021-08-05T15:01:02Z</time>
      </trkpt>
      <trkpt lat="43.06428" lon="-1.20657">
        <ele>660.25</ele>
        <time>2021-08-05T15:01:05Z</time>
      </trkpt>
      <trkpt lat="43.06414" lon="-1.20599">
        <ele>656.69</ele>
        <time>2021-08-05T15:01:08Z</time>
      </trkpt>
      <trkpt lat="43.064" lon="-1.20542">
        <ele>652.48</ele>
        <time>2021-08-05T15:01:11Z</time>
      </trkpt>
      <trkpt lat="43.0639" lon="-1.20488">
        <ele>648.23</ele>
        <time>2021-08-05T15:01:14Z</time>
      </trkpt>
      <trkpt lat="43.06383" lon="-1.20432">
        <ele>643.79</ele>
        <time>2021-08-05T15:01:17Z</time>
      </trkpt>
      <trkpt lat="43.06371" lon="-1.20377">
        <ele>639.31</ele>
        <time>2021-08-05T15:01:20Z</time>
      </trkpt>
      <trkpt lat="43.0636" lon="-1.20343">
        <ele>636.28</ele>
        <time>2021-08-05T15:01:22Z</time>
      </trkpt>
      <trkpt lat="43.06356" lon="-1.20325">
        <ele>634.86</ele>
        <time>2021-08-05T15:01:23Z</time>
      </trkpt>
      <trkpt lat="43.06349" lon="-1.20256">
        <ele>629.02</ele>
        <time>2021-08-05T15:01:27Z</time>
      </trkpt>
      <trkpt lat="43.06335" lon="-1.20216">
        <ele>624.69</ele>
        <time>2021-08-05T15:01:30Z</time>
      </trkpt>
      <trkpt lat="43.06317" lon="-1.20179">
        <ele>619.59</ele>
        <time>2021-08-05T15:01:34Z</time>
      </trkpt>
      <trkpt lat="43.06325" lon="-1.20165">
        <ele>615.99</ele>
        <time>2021-08-05T15:01:38Z</time>
      </trkpt>
      <trkpt lat="43.06336" lon="-1.20225">
        <ele>612.75</ele>
        <time>2021-08-05T15:01:43Z</time>
      </trkpt>
      <trkpt lat="43.06339" lon="-1.20238">
        <ele>612.2</ele>
        <time>2021-08-05T15:01:44Z</time>
      </trkpt>
      <trkpt lat="43.06357" lon="-1.20294">
        <ele>610.36</ele>
        <time>2021-08-05T15:01:48Z</time>
      </trkpt>
      <trkpt lat="43.06405" lon="-1.20378">
        <ele>605.58</ele>
        <time>2021-08-05T15:01:54Z</time>
      </trkpt>
      <trkpt lat="43.06428" lon="-1.2042">
        <ele>602.4</ele>
        <time>2021-08-05T15:01:57Z</time>
      </trkpt>
      <trkpt lat="43.0645" lon="-1.20465">
        <ele>598.87</ele>
        <time>2021-08-05T15:02:00Z</time>
      </trkpt>
      <trkpt lat="43.06471" lon="-1.20515">
        <ele>595.48</ele>
        <time>2021-08-05T15:02:03Z</time>
      </trkpt>
      <trkpt lat="43.06486" lon="-1.20566">
        <ele>592.06</ele>
        <time>2021-08-05T15:02:06Z</time>
      </trkpt>
      <trkpt lat="43.06491" lon="-1.20583">
        <ele>590.85</ele>
        <time>2021-08-05T15:02:07Z</time>
      </trkpt>
      <trkpt lat="43.06528" lon="-1.20644">
        <ele>586.23</ele>
        <time>2021-08-05T15:02:11Z</time>
      </trkpt>
      <trkpt lat="43.06558" lon="-1.20686">
        <ele>582.37</ele>
        <time>2021-08-05T15:02:14Z</time>
      </trkpt>
      <trkpt lat="43.06586" lon="-1.20728">
        <ele>578.29</ele>
        <time>2021-08-05T15:02:17Z</time>
      </trkpt>
      <trkpt lat="43.06611" lon="-1.20766">
        <ele>573.99</ele>
        <time>2021-08-05T15:02:20Z</time>
      </trkpt>
      <trkpt lat="43.0662" lon="-1.20775">
        <ele>572.57</ele>
        <time>2021-08-05T15:02:21Z</time>
      </trkpt>
      <trkpt lat="43.06659" lon="-1.20809">
        <ele>567.51</ele>
        <time>2021-08-05T15:02:25Z</time>
      </trkpt>
      <trkpt lat="43.06677" lon="-1.20829">
        <ele>564.97</ele>
        <time>2021-08-05T15:02:27Z</time>
      </trkpt>
      <trkpt lat="43.06709" lon="-1.20886">
        <ele>559.75</ele>
        <time>2021-08-05T15:02:31Z</time>
      </trkpt>
      <trkpt lat="43.06736" lon="-1.20926">
        <ele>556</ele>
        <time>2021-08-05T15:02:34Z</time>
      </trkpt>
      <trkpt lat="43.06766" lon="-1.20959">
        <ele>552.28</ele>
        <time>2021-08-05T15:02:37Z</time>
      </trkpt>
      <trkpt lat="43.06791" lon="-1.2098">
        <ele>548.53</ele>
        <time>2021-08-05T15:02:40Z</time>
      </trkpt>
      <trkpt lat="43.06798" lon="-1.20986">
        <ele>547.26</ele>
        <time>2021-08-05T15:02:41Z</time>
      </trkpt>
      <trkpt lat="43.06814" lon="-1.21031">
        <ele>542.88</ele>
        <time>2021-08-05T15:02:45Z</time>
      </trkpt>
      <trkpt lat="43.06822" lon="-1.21053">
        <ele>540.88</ele>
        <time>2021-08-05T15:02:47Z</time>
      </trkpt>
      <trkpt lat="43.06857" lon="-1.21075">
        <ele>536.44</ele>
        <time>2021-08-05T15:02:51Z</time>
      </trkpt>
      <trkpt lat="43.06893" lon="-1.21095">
        <ele>532.06</ele>
        <time>2021-08-05T15:02:55Z</time>
      </trkpt>
      <trkpt lat="43.06914" lon="-1.21143">
        <ele>526.6</ele>
        <time>2021-08-05T15:02:59Z</time>
      </trkpt>
      <trkpt lat="43.06925" lon="-1.21188">
        <ele>522.76</ele>
        <time>2021-08-05T15:03:02Z</time>
      </trkpt>
      <trkpt lat="43.06959" lon="-1.21259">
        <ele>516.07</ele>
        <time>2021-08-05T15:03:07Z</time>
      </trkpt>
      <trkpt lat="43.06972" lon="-1.21295">
        <ele>512.68</ele>
        <time>2021-08-05T15:03:10Z</time>
      </trkpt>
      <trkpt lat="43.06976" lon="-1.21304">
        <ele>511.74</ele>
        <time>2021-08-05T15:03:11Z</time>
      </trkpt>
      <trkpt lat="43.07004" lon="-1.21303">
        <ele>507.78</ele>
        <time>2021-08-05T15:03:17Z</time>
      </trkpt>
      <trkpt lat="43.06994" lon="-1.21258">
        <ele>506.18</ele>
        <time>2021-08-05T15:03:22Z</time>
      </trkpt>
      <trkpt lat="43.06988" lon="-1.21183">
        <ele>504.3</ele>
        <time>2021-08-05T15:03:29Z</time>
      </trkpt>
      <trkpt lat="43.07016" lon="-1.21112">
        <ele>500.37</ele>
        <time>2021-08-05T15:03:37Z</time>
      </trkpt>
      <trkpt lat="43.06999" lon="-1.21082">
        <ele>497.7</ele>
        <time>2021-08-05T15:03:41Z</time>
      </trkpt>
      <trkpt lat="43.06987" lon="-1.21065">
        <ele>496.6</ele>
        <time>2021-08-05T15:03:43Z</time>
      </trkpt>
      <trkpt lat="43.06965" lon="-1.21003">
        <ele>493.57</ele>
        <time>2021-08-05T15:03:48Z</time>
      </trkpt>
      <trkpt lat="43.06946" lon="-1.20968">
        <ele>491.61</ele>
        <time>2021-08-05T15:03:51Z</time>
      </trkpt>
      <trkpt lat="43.06939" lon="-1.20918">
        <ele>488.76</ele>
        <time>2021-08-05T15:03:55Z</time>
      </trkpt>
      <trkpt lat="43.06932" lon="-1.20849">
        <ele>485.59</ele>
        <time>2021-08-05T15:04:00Z</time>
      </trkpt>
      <trkpt lat="43.06926" lon="-1.20803">
        <ele>483.29</ele>
        <time>2021-08-05T15:04:03Z</time>
      </trkpt>
      <trkpt lat="43.06895" lon="-1.20727">
        <ele>478.41</ele>
        <time>2021-08-05T15:04:08Z</time>
      </trkpt>
      <trkpt lat="43.06878" lon="-1.20666">
        <ele>474.79</ele>
        <time>2021-08-05T15:04:12Z</time>
      </trkpt>
      <trkpt lat="43.06852" lon="-1.2059">
        <ele>469.66</ele>
        <time>2021-08-05T15:04:18Z</time>
      </trkpt>
      <trkpt lat="43.06844" lon="-1.20548">
        <ele>467.51</ele>
        <time>2021-08-05T15:04:21Z</time>
      </trkpt>
      <trkpt lat="43.06828" lon="-1.20466">
        <ele>463.18</ele>
        <time>2021-08-05T15:04:26Z</time>
      </trkpt>
      <trkpt lat="43.06825" lon="-1.20453">
        <ele>462.13</ele>
        <time>2021-08-05T15:04:27Z</time>
      </trkpt>
      <trkpt lat="43.06822" lon="-1.20399">
        <ele>457.83</ele>
        <time>2021-08-05T15:04:31Z</time>
      </trkpt>
      <trkpt lat="43.06822" lon="-1.20363">
        <ele>455.02</ele>
        <time>2021-08-05T15:04:34Z</time>
      </trkpt>
      <trkpt lat="43.06845" lon="-1.20339">
        <ele>451.77</ele>
        <time>2021-08-05T15:04:38Z</time>
      </trkpt>
      <trkpt lat="43.069" lon="-1.20317">
        <ele>448.2</ele>
        <time>2021-08-05T15:04:43Z</time>
      </trkpt>
      <trkpt lat="43.06919" lon="-1.20283">
        <ele>443.85</ele>
        <time>2021-08-05T15:04:48Z</time>
      </trkpt>
      <trkpt lat="43.06882" lon="-1.20271">
        <ele>440.47</ele>
        <time>2021-08-05T15:04:52Z</time>
      </trkpt>
      <trkpt lat="43.06857" lon="-1.20269">
        <ele>439.31</ele>
        <time>2021-08-05T15:04:54Z</time>
      </trkpt>
      <trkpt lat="43.06799" lon="-1.20211">
        <ele>436.56</ele>
        <time>2021-08-05T15:05:01Z</time>
      </trkpt>
      <trkpt lat="43.06799" lon="-1.20195">
        <ele>435.93</ele>
        <time>2021-08-05T15:05:02Z</time>
      </trkpt>
      <trkpt lat="43.068" lon="-1.2016">
        <ele>434.55</ele>
        <time>2021-08-05T15:05:04Z</time>
      </trkpt>
      <trkpt lat="43.06825" lon="-1.20075">
        <ele>430.09</ele>
        <time>2021-08-05T15:05:09Z</time>
      </trkpt>
      <trkpt lat="43.06836" lon="-1.20041">
        <ele>428.03</ele>
        <time>2021-08-05T15:05:11Z</time>
      </trkpt>
      <trkpt lat="43.0685" lon="-1.19985">
        <ele>423.68</ele>
        <time>2021-08-05T15:05:15Z</time>
      </trkpt>
      <trkpt lat="43.06851" lon="-1.19955">
        <ele>419.64</ele>
        <time>2021-08-05T15:05:18Z</time>
      </trkpt>
      <trkpt lat="43.06836" lon="-1.19935">
        <ele>415.66</ele>
        <time>2021-08-05T15:05:21Z</time>
      </trkpt>
      <trkpt lat="43.06836" lon="-1.19904">
        <ele>412.63</ele>
        <time>2021-08-05T15:05:24Z</time>
      </trkpt>
      <trkpt lat="43.0684" lon="-1.19892">
        <ele>411.7</ele>
        <time>2021-08-05T15:05:25Z</time>
      </trkpt>
      <trkpt lat="43.06851" lon="-1.19864">
        <ele>410.09</ele>
        <time>2021-08-05T15:05:27Z</time>
      </trkpt>
      <trkpt lat="43.0685" lon="-1.19793">
        <ele>405.63</ele>
        <time>2021-08-05T15:05:32Z</time>
      </trkpt>
      <trkpt lat="43.06832" lon="-1.19779">
        <ele>403.57</ele>
        <time>2021-08-05T15:05:34Z</time>
      </trkpt>
      <trkpt lat="43.0682" lon="-1.19735">
        <ele>398.11</ele>
        <time>2021-08-05T15:05:39Z</time>
      </trkpt>
      <trkpt lat="43.06825" lon="-1.19721">
        <ele>397.18</ele>
        <time>2021-08-05T15:05:40Z</time>
      </trkpt>
      <trkpt lat="43.06843" lon="-1.19649">
        <ele>393.57</ele>
        <time>2021-08-05T15:05:44Z</time>
      </trkpt>
      <trkpt lat="43.06844" lon="-1.19612">
        <ele>391.68</ele>
        <time>2021-08-05T15:05:46Z</time>
      </trkpt>
      <trkpt lat="43.06845" lon="-1.1957">
        <ele>387.99</ele>
        <time>2021-08-05T15:05:49Z</time>
      </trkpt>
      <trkpt lat="43.06847" lon="-1.19558">
        <ele>386.66</ele>
        <time>2021-08-05T15:05:50Z</time>
      </trkpt>
      <trkpt lat="43.06853" lon="-1.19548">
        <ele>385.32</ele>
        <time>2021-08-05T15:05:51Z</time>
      </trkpt>
      <trkpt lat="43.06859" lon="-1.19536">
        <ele>384.06</ele>
        <time>2021-08-05T15:05:52Z</time>
      </trkpt>
      <trkpt lat="43.06891" lon="-1.1945">
        <ele>378.49</ele>
        <time>2021-08-05T15:05:58Z</time>
      </trkpt>
      <trkpt lat="43.06913" lon="-1.1939">
        <ele>375.3</ele>
        <time>2021-08-05T15:06:03Z</time>
      </trkpt>
      <trkpt lat="43.06916" lon="-1.19379">
        <ele>374.58</ele>
        <time>2021-08-05T15:06:04Z</time>
      </trkpt>
      <trkpt lat="43.0696" lon="-1.19337">
        <ele>371.87</ele>
        <time>2021-08-05T15:06:10Z</time>
      </trkpt>
      <trkpt lat="43.07024" lon="-1.19334">
        <ele>370.49</ele>
        <time>2021-08-05T15:06:16Z</time>
      </trkpt>
      <trkpt lat="43.0704" lon="-1.19355">
        <ele>369.82</ele>
        <time>2021-08-05T15:06:18Z</time>
      </trkpt>
      <trkpt lat="43.071" lon="-1.19385">
        <ele>368.31</ele>
        <time>2021-08-05T15:06:25Z</time>
      </trkpt>
      <trkpt lat="43.07135" lon="-1.19323">
        <ele>365.54</ele>
        <time>2021-08-05T15:06:31Z</time>
      </trkpt>
      <trkpt lat="43.07154" lon="-1.19256">
        <ele>362.89</ele>
        <time>2021-08-05T15:06:37Z</time>
      </trkpt>
      <trkpt lat="43.07189" lon="-1.19235">
        <ele>361.6</ele>
        <time>2021-08-05T15:06:41Z</time>
      </trkpt>
      <trkpt lat="43.07233" lon="-1.19215">
        <ele>361.15</ele>
        <time>2021-08-05T15:06:45Z</time>
      </trkpt>
      <trkpt lat="43.07299" lon="-1.19224">
        <ele>361.66</ele>
        <time>2021-08-05T15:06:52Z</time>
      </trkpt>
      <trkpt lat="43.07322" lon="-1.1918">
        <ele>362.84</ele>
        <time>2021-08-05T15:06:57Z</time>
      </trkpt>
      <trkpt lat="43.07303" lon="-1.19159">
        <ele>362.67</ele>
        <time>2021-08-05T15:06:59Z</time>
      </trkpt>
      <trkpt lat="43.07268" lon="-1.19127">
        <ele>361.19</ele>
        <time>2021-08-05T15:07:02Z</time>
      </trkpt>
      <trkpt lat="43.07245" lon="-1.19085">
        <ele>357.96</ele>
        <time>2021-08-05T15:07:05Z</time>
      </trkpt>
      <trkpt lat="43.07262" lon="-1.19037">
        <ele>352.26</ele>
        <time>2021-08-05T15:07:09Z</time>
      </trkpt>
      <trkpt lat="43.07277" lon="-1.18984">
        <ele>348.87</ele>
        <time>2021-08-05T15:07:12Z</time>
      </trkpt>
      <trkpt lat="43.07298" lon="-1.18905">
        <ele>346.82</ele>
        <time>2021-08-05T15:07:16Z</time>
      </trkpt>
      <trkpt lat="43.07324" lon="-1.18849">
        <ele>346.37</ele>
        <time>2021-08-05T15:07:19Z</time>
      </trkpt>
      <trkpt lat="43.07388" lon="-1.18808">
        <ele>345.91</ele>
        <time>2021-08-05T15:07:24Z</time>
      </trkpt>
      <trkpt lat="43.07413" lon="-1.18823">
        <ele>345</ele>
        <time>2021-08-05T15:07:29Z</time>
      </trkpt>
      <trkpt lat="43.07427" lon="-1.18861">
        <ele>342.87</ele>
        <time>2021-08-05T15:07:34Z</time>
      </trkpt>
      <trkpt lat="43.07432" lon="-1.18888">
        <ele>342.4</ele>
        <time>2021-08-05T15:07:36Z</time>
      </trkpt>
      <trkpt lat="43.07489" lon="-1.18928">
        <ele>341.96</ele>
        <time>2021-08-05T15:07:42Z</time>
      </trkpt>
      <trkpt lat="43.07503" lon="-1.18926">
        <ele>342.09</ele>
        <time>2021-08-05T15:07:43Z</time>
      </trkpt>
      <trkpt lat="43.07598" lon="-1.18925">
        <ele>345.05</ele>
        <time>2021-08-05T15:07:50Z</time>
      </trkpt>
      <trkpt lat="43.07676" lon="-1.18976">
        <ele>348.46</ele>
        <time>2021-08-05T15:07:57Z</time>
      </trkpt>
      <trkpt lat="43.07768" lon="-1.19001">
        <ele>349.83</ele>
        <time>2021-08-05T15:08:06Z</time>
      </trkpt>
      <trkpt lat="43.07839" lon="-1.19037">
        <ele>346.61</ele>
        <time>2021-08-05T15:08:14Z</time>
      </trkpt>
      <trkpt lat="43.07885" lon="-1.19074">
        <ele>343.19</ele>
        <time>2021-08-05T15:08:20Z</time>
      </trkpt>
      <trkpt lat="43.07912" lon="-1.19095">
        <ele>339.85</ele>
        <time>2021-08-05T15:08:24Z</time>
      </trkpt>
      <trkpt lat="43.07923" lon="-1.19103">
        <ele>337.66</ele>
        <time>2021-08-05T15:08:26Z</time>
      </trkpt>
      <trkpt lat="43.07962" lon="-1.19102">
        <ele>331.85</ele>
        <time>2021-08-05T15:08:31Z</time>
      </trkpt>
      <trkpt lat="43.07976" lon="-1.19101">
        <ele>329.94</ele>
        <time>2021-08-05T15:08:33Z</time>
      </trkpt>
      <trkpt lat="43.07991" lon="-1.191">
        <ele>328.3</ele>
        <time>2021-08-05T15:08:35Z</time>
      </trkpt>
      <trkpt lat="43.08022" lon="-1.19085">
        <ele>326.43</ele>
        <time>2021-08-05T15:08:39Z</time>
      </trkpt>
      <trkpt lat="43.08115" lon="-1.19064">
        <ele>323.23</ele>
        <time>2021-08-05T15:08:48Z</time>
      </trkpt>
      <trkpt lat="43.08188" lon="-1.19107">
        <ele>321.46</ele>
        <time>2021-08-05T15:08:54Z</time>
      </trkpt>
      <trkpt lat="43.08307" lon="-1.19191">
        <ele>321.15</ele>
        <time>2021-08-05T15:09:02Z</time>
      </trkpt>
      <trkpt lat="43.08365" lon="-1.19208">
        <ele>322.36</ele>
        <time>2021-08-05T15:09:06Z</time>
      </trkpt>
      <trkpt lat="43.08447" lon="-1.19216">
        <ele>325.15</ele>
        <time>2021-08-05T15:09:11Z</time>
      </trkpt>
      <trkpt lat="43.08476" lon="-1.19229">
        <ele>325.93</ele>
        <time>2021-08-05T15:09:13Z</time>
      </trkpt>
      <trkpt lat="43.085" lon="-1.19238">
        <ele>326.11</ele>
        <time>2021-08-05T15:09:15Z</time>
      </trkpt>
      <trkpt lat="43.08584" lon="-1.19315">
        <ele>324.24</ele>
        <time>2021-08-05T15:09:22Z</time>
      </trkpt>
      <trkpt lat="43.08636" lon="-1.19368">
        <ele>321.13</ele>
        <time>2021-08-05T15:09:26Z</time>
      </trkpt>
      <trkpt lat="43.08687" lon="-1.1941">
        <ele>317.43</ele>
        <time>2021-08-05T15:09:30Z</time>
      </trkpt>
      <trkpt lat="43.0875" lon="-1.19452">
        <ele>315.15</ele>
        <time>2021-08-05T15:09:36Z</time>
      </trkpt>
      <trkpt lat="43.08828" lon="-1.1945">
        <ele>317.71</ele>
        <time>2021-08-05T15:09:42Z</time>
      </trkpt>
      <trkpt lat="43.08858" lon="-1.19441">
        <ele>319.23</ele>
        <time>2021-08-05T15:09:44Z</time>
      </trkpt>
      <trkpt lat="43.08936" lon="-1.1944">
        <ele>323.06</ele>
        <time>2021-08-05T15:09:49Z</time>
      </trkpt>
      <trkpt lat="43.08977" lon="-1.19447">
        <ele>324.59</ele>
        <time>2021-08-05T15:09:52Z</time>
      </trkpt>
      <trkpt lat="43.09025" lon="-1.1948">
        <ele>324.88</ele>
        <time>2021-08-05T15:09:57Z</time>
      </trkpt>
      <trkpt lat="43.09074" lon="-1.19503">
        <ele>323.42</ele>
        <time>2021-08-05T15:10:01Z</time>
      </trkpt>
      <trkpt lat="43.09128" lon="-1.19535">
        <ele>319.7</ele>
        <time>2021-08-05T15:10:05Z</time>
      </trkpt>
      <trkpt lat="43.0914" lon="-1.19545">
        <ele>318.72</ele>
        <time>2021-08-05T15:10:06Z</time>
      </trkpt>
      <trkpt lat="43.09161" lon="-1.19566">
        <ele>316.53</ele>
        <time>2021-08-05T15:10:08Z</time>
      </trkpt>
      <trkpt lat="43.09195" lon="-1.19585">
        <ele>313.28</ele>
        <time>2021-08-05T15:10:11Z</time>
      </trkpt>
      <trkpt lat="43.0925" lon="-1.19587">
        <ele>309.23</ele>
        <time>2021-08-05T15:10:15Z</time>
      </trkpt>
      <trkpt lat="43.09305" lon="-1.19591">
        <ele>305.36</ele>
        <time>2021-08-05T15:10:19Z</time>
      </trkpt>
      <trkpt lat="43.09359" lon="-1.19608">
        <ele>301.72</ele>
        <time>2021-08-05T15:10:23Z</time>
      </trkpt>
      <trkpt lat="43.09382" lon="-1.19612">
        <ele>299.86</ele>
        <time>2021-08-05T15:10:25Z</time>
      </trkpt>
      <trkpt lat="43.09437" lon="-1.19638">
        <ele>295.92</ele>
        <time>2021-08-05T15:10:30Z</time>
      </trkpt>
      <trkpt lat="43.09449" lon="-1.19645">
        <ele>295.3</ele>
        <time>2021-08-05T15:10:31Z</time>
      </trkpt>
      <trkpt lat="43.09491" lon="-1.19699">
        <ele>293.73</ele>
        <time>2021-08-05T15:10:35Z</time>
      </trkpt>
      <trkpt lat="43.09579" lon="-1.19774">
        <ele>293.19</ele>
        <time>2021-08-05T15:10:43Z</time>
      </trkpt>
      <trkpt lat="43.09734" lon="-1.19835">
        <ele>292.01</ele>
        <time>2021-08-05T15:10:54Z</time>
      </trkpt>
      <trkpt lat="43.09786" lon="-1.1985">
        <ele>288.64</ele>
        <time>2021-08-05T15:11:01Z</time>
      </trkpt>
      <trkpt lat="43.09861" lon="-1.19849">
        <ele>285.91</ele>
        <time>2021-08-05T15:11:08Z</time>
      </trkpt>
      <trkpt lat="43.09899" lon="-1.19818">
        <ele>283.83</ele>
        <time>2021-08-05T15:11:17Z</time>
      </trkpt>
      <trkpt lat="43.09976" lon="-1.19769">
        <ele>282.61</ele>
        <time>2021-08-05T15:11:29Z</time>
      </trkpt>
      <trkpt lat="43.10065" lon="-1.19723">
        <ele>282.57</ele>
        <time>2021-08-05T15:11:38Z</time>
      </trkpt>
      <trkpt lat="43.10145" lon="-1.19664">
        <ele>281.15</ele>
        <time>2021-08-05T15:11:48Z</time>
      </trkpt>
      <trkpt lat="43.1018" lon="-1.19612">
        <ele>280.96</ele>
        <time>2021-08-05T15:11:54Z</time>
      </trkpt>
      <trkpt lat="43.10188" lon="-1.19604">
        <ele>281.11</ele>
        <time>2021-08-05T15:11:55Z</time>
      </trkpt>
      <trkpt lat="43.10256" lon="-1.19558">
        <ele>283.29</ele>
        <time>2021-08-05T15:12:03Z</time>
      </trkpt>
      <trkpt lat="43.103" lon="-1.1956">
        <ele>283.54</ele>
        <time>2021-08-05T15:12:08Z</time>
      </trkpt>
      <trkpt lat="43.10359" lon="-1.19595">
        <ele>281.32</ele>
        <time>2021-08-05T15:12:15Z</time>
      </trkpt>
      <trkpt lat="43.10388" lon="-1.19595">
        <ele>278.99</ele>
        <time>2021-08-05T15:12:20Z</time>
      </trkpt>
      <trkpt lat="43.10434" lon="-1.19574">
        <ele>278.31</ele>
        <time>2021-08-05T15:12:32Z</time>
      </trkpt>
      <trkpt lat="43.10471" lon="-1.19581">
        <ele>278.37</ele>
        <time>2021-08-05T15:12:38Z</time>
      </trkpt>
      <trkpt lat="43.10487" lon="-1.19591">
        <ele>278.29</ele>
        <time>2021-08-05T15:12:40Z</time>
      </trkpt>
      <trkpt lat="43.10547" lon="-1.1961">
        <ele>278.57</ele>
        <time>2021-08-05T15:12:48Z</time>
      </trkpt>
      <trkpt lat="43.10581" lon="-1.19632">
        <ele>279.95</ele>
        <time>2021-08-05T15:12:54Z</time>
      </trkpt>
      <trkpt lat="43.10595" lon="-1.19646">
        <ele>280.8</ele>
        <time>2021-08-05T15:12:57Z</time>
      </trkpt>
      <trkpt lat="43.10631" lon="-1.19682">
        <ele>284.2</ele>
        <time>2021-08-05T15:13:05Z</time>
      </trkpt>
      <trkpt lat="43.10648" lon="-1.1971">
        <ele>285.77</ele>
        <time>2021-08-05T15:13:08Z</time>
      </trkpt>
      <trkpt lat="43.10708" lon="-1.19797">
        <ele>289.45</ele>
        <time>2021-08-05T15:13:16Z</time>
      </trkpt>
      <trkpt lat="43.10799" lon="-1.19921">
        <ele>291.22</ele>
        <time>2021-08-05T15:13:27Z</time>
      </trkpt>
      <trkpt lat="43.10855" lon="-1.20008">
        <ele>291.79</ele>
        <time>2021-08-05T15:13:34Z</time>
      </trkpt>
      <trkpt lat="43.10894" lon="-1.20047">
        <ele>291.44</ele>
        <time>2021-08-05T15:13:38Z</time>
      </trkpt>
      <trkpt lat="43.10934" lon="-1.20115">
        <ele>289.56</ele>
        <time>2021-08-05T15:13:43Z</time>
      </trkpt>
      <trkpt lat="43.10963" lon="-1.20173">
        <ele>288.11</ele>
        <time>2021-08-05T15:13:48Z</time>
      </trkpt>
      <trkpt lat="43.11051" lon="-1.20266">
        <ele>286.24</ele>
        <time>2021-08-05T15:13:58Z</time>
      </trkpt>
      <trkpt lat="43.11078" lon="-1.20287">
        <ele>285.55</ele>
        <time>2021-08-05T15:14:00Z</time>
      </trkpt>
      <trkpt lat="43.11198" lon="-1.20415">
        <ele>282.46</ele>
        <time>2021-08-05T15:14:09Z</time>
      </trkpt>
      <trkpt lat="43.11211" lon="-1.20428">
        <ele>282.07</ele>
        <time>2021-08-05T15:14:10Z</time>
      </trkpt>
      <trkpt lat="43.11257" lon="-1.20499">
        <ele>279.74</ele>
        <time>2021-08-05T15:14:15Z</time>
      </trkpt>
      <trkpt lat="43.11282" lon="-1.20586">
        <ele>277.37</ele>
        <time>2021-08-05T15:14:21Z</time>
      </trkpt>
      <trkpt lat="43.1129" lon="-1.20642">
        <ele>276.95</ele>
        <time>2021-08-05T15:14:25Z</time>
      </trkpt>
      <trkpt lat="43.11347" lon="-1.20726">
        <ele>276.54</ele>
        <time>2021-08-05T15:14:32Z</time>
      </trkpt>
      <trkpt lat="43.11367" lon="-1.20741">
        <ele>276.01</ele>
        <time>2021-08-05T15:14:34Z</time>
      </trkpt>
      <trkpt lat="43.11423" lon="-1.20823">
        <ele>274.34</ele>
        <time>2021-08-05T15:14:41Z</time>
      </trkpt>
      <trkpt lat="43.11441" lon="-1.2092">
        <ele>275.43</ele>
        <time>2021-08-05T15:14:46Z</time>
      </trkpt>
      <trkpt lat="43.11434" lon="-1.2105">
        <ele>279.35</ele>
        <time>2021-08-05T15:14:52Z</time>
      </trkpt>
      <trkpt lat="43.11432" lon="-1.21069">
        <ele>279.73</ele>
        <time>2021-08-05T15:14:53Z</time>
      </trkpt>
      <trkpt lat="43.11441" lon="-1.21157">
        <ele>280.05</ele>
        <time>2021-08-05T15:14:58Z</time>
      </trkpt>
      <trkpt lat="43.11474" lon="-1.21222">
        <ele>278.28</ele>
        <time>2021-08-05T15:15:02Z</time>
      </trkpt>
      <trkpt lat="43.11513" lon="-1.21272">
        <ele>275.91</ele>
        <time>2021-08-05T15:15:05Z</time>
      </trkpt>
      <trkpt lat="43.11557" lon="-1.2131">
        <ele>274.05</ele>
        <time>2021-08-05T15:15:08Z</time>
      </trkpt>
      <trkpt lat="43.11634" lon="-1.21338">
        <ele>271.7</ele>
        <time>2021-08-05T15:15:13Z</time>
      </trkpt>
      <trkpt lat="43.11664" lon="-1.21348">
        <ele>271.42</ele>
        <time>2021-08-05T15:15:15Z</time>
      </trkpt>
      <trkpt lat="43.11726" lon="-1.21433">
        <ele>268.66</ele>
        <time>2021-08-05T15:15:21Z</time>
      </trkpt>
      <trkpt lat="43.11782" lon="-1.21518">
        <ele>266.29</ele>
        <time>2021-08-05T15:15:26Z</time>
      </trkpt>
      <trkpt lat="43.11834" lon="-1.21564">
        <ele>265.59</ele>
        <time>2021-08-05T15:15:30Z</time>
      </trkpt>
      <trkpt lat="43.11889" lon="-1.21585">
        <ele>265.99</ele>
        <time>2021-08-05T15:15:34Z</time>
      </trkpt>
      <trkpt lat="43.11954" lon="-1.2159">
        <ele>266.5</ele>
        <time>2021-08-05T15:15:38Z</time>
      </trkpt>
      <trkpt lat="43.12119" lon="-1.21555">
        <ele>267.42</ele>
        <time>2021-08-05T15:15:47Z</time>
      </trkpt>
      <trkpt lat="43.12243" lon="-1.21525">
        <ele>266.49</ele>
        <time>2021-08-05T15:15:54Z</time>
      </trkpt>
      <trkpt lat="43.1226" lon="-1.21522">
        <ele>266.07</ele>
        <time>2021-08-05T15:15:55Z</time>
      </trkpt>
      <trkpt lat="43.12322" lon="-1.2149">
        <ele>263.93</ele>
        <time>2021-08-05T15:15:59Z</time>
      </trkpt>
      <trkpt lat="43.12406" lon="-1.21412">
        <ele>260.64</ele>
        <time>2021-08-05T15:16:05Z</time>
      </trkpt>
      <trkpt lat="43.12451" lon="-1.21385">
        <ele>259.66</ele>
        <time>2021-08-05T15:16:08Z</time>
      </trkpt>
      <trkpt lat="43.12531" lon="-1.21339">
        <ele>258.33</ele>
        <time>2021-08-05T15:16:14Z</time>
      </trkpt>
      <trkpt lat="43.12631" lon="-1.21336">
        <ele>257.03</ele>
        <time>2021-08-05T15:16:20Z</time>
      </trkpt>
      <trkpt lat="43.12708" lon="-1.21389">
        <ele>256</ele>
        <time>2021-08-05T15:16:25Z</time>
      </trkpt>
      <trkpt lat="43.12781" lon="-1.21422">
        <ele>255.89</ele>
        <time>2021-08-05T15:16:29Z</time>
      </trkpt>
      <trkpt lat="43.12818" lon="-1.21428">
        <ele>256.06</ele>
        <time>2021-08-05T15:16:31Z</time>
      </trkpt>
      <trkpt lat="43.12862" lon="-1.21447">
        <ele>256.34</ele>
        <time>2021-08-05T15:16:34Z</time>
      </trkpt>
      <trkpt lat="43.12901" lon="-1.21463">
        <ele>256.76</ele>
        <time>2021-08-05T15:16:37Z</time>
      </trkpt>
      <trkpt lat="43.12984" lon="-1.21537">
        <ele>258.09</ele>
        <time>2021-08-05T15:16:43Z</time>
      </trkpt>
      <trkpt lat="43.1314" lon="-1.21644">
        <ele>260.26</ele>
        <time>2021-08-05T15:16:52Z</time>
      </trkpt>
      <trkpt lat="43.13288" lon="-1.21734">
        <ele>259.31</ele>
        <time>2021-08-05T15:17:00Z</time>
      </trkpt>
      <trkpt lat="43.13353" lon="-1.21823">
        <ele>255.35</ele>
        <time>2021-08-05T15:17:06Z</time>
      </trkpt>
      <trkpt lat="43.13386" lon="-1.21866">
        <ele>251.58</ele>
        <time>2021-08-05T15:17:10Z</time>
      </trkpt>
      <trkpt lat="43.13397" lon="-1.21879">
        <ele>249.12</ele>
        <time>2021-08-05T15:17:12Z</time>
      </trkpt>
      <trkpt lat="43.13429" lon="-1.219">
        <ele>245.38</ele>
        <time>2021-08-05T15:17:16Z</time>
      </trkpt>
      <trkpt lat="43.1347" lon="-1.21951">
        <ele>243.18</ele>
        <time>2021-08-05T15:17:22Z</time>
      </trkpt>
      <trkpt lat="43.13514" lon="-1.22054">
        <ele>241.97</ele>
        <time>2021-08-05T15:17:32Z</time>
      </trkpt>
      <trkpt lat="43.13528" lon="-1.22077">
        <ele>241.01</ele>
        <time>2021-08-05T15:17:35Z</time>
      </trkpt>
      <trkpt lat="43.13552" lon="-1.2213">
        <ele>238.52</ele>
        <time>2021-08-05T15:17:45Z</time>
      </trkpt>
      <trkpt lat="43.13554" lon="-1.22135">
        <ele>237.92</ele>
        <time>2021-08-05T15:17:48Z</time>
      </trkpt>
      <trkpt lat="43.13545" lon="-1.22133">
        <ele>236.7</ele>
        <time>2021-08-05T15:17:57Z</time>
      </trkpt>
      <trkpt lat="43.13546" lon="-1.22128">
        <ele>236.38</ele>
        <time>2021-08-05T15:18:03Z</time>
      </trkpt>
      <trkpt lat="43.13542" lon="-1.22109">
        <ele>236.48</ele>
        <time>2021-08-05T15:18:07Z</time>
      </trkpt>
      <trkpt lat="43.13535" lon="-1.22095">
        <ele>236.56</ele>
        <time>2021-08-05T15:18:09Z</time>
      </trkpt>
      <trkpt lat="43.13517" lon="-1.22063">
        <ele>236.94</ele>
        <time>2021-08-05T15:18:13Z</time>
      </trkpt>
      <trkpt lat="43.13504" lon="-1.22042">
        <ele>237.49</ele>
        <time>2021-08-05T15:18:21Z</time>
      </trkpt>
      <trkpt lat="43.13504" lon="-1.22039">
        <ele>237.1</ele>
        <time>2021-08-05T15:18:31Z</time>
      </trkpt>
      <trkpt lat="43.13524" lon="-1.22042">
        <ele>237.06</ele>
        <time>2021-08-05T15:18:36Z</time>
      </trkpt>
      <trkpt lat="43.13547" lon="-1.22059">
        <ele>237.61</ele>
        <time>2021-08-05T15:18:39Z</time>
      </trkpt>
      <trkpt lat="43.13586" lon="-1.22073">
        <ele>238.51</ele>
        <time>2021-08-05T15:18:43Z</time>
      </trkpt>
      <trkpt lat="43.13682" lon="-1.22081">
        <ele>239.39</ele>
        <time>2021-08-05T15:18:52Z</time>
      </trkpt>
      <trkpt lat="43.13722" lon="-1.22072">
        <ele>238.83</ele>
        <time>2021-08-05T15:18:56Z</time>
      </trkpt>
      <trkpt lat="43.13775" lon="-1.22046">
        <ele>237.51</ele>
        <time>2021-08-05T15:19:03Z</time>
      </trkpt>
      <trkpt lat="43.13781" lon="-1.22045">
        <ele>237.29</ele>
        <time>2021-08-05T15:19:04Z</time>
      </trkpt>
      <trkpt lat="43.13788" lon="-1.22047">
        <ele>237.14</ele>
        <time>2021-08-05T15:19:05Z</time>
      </trkpt>
      <trkpt lat="43.13798" lon="-1.22057">
        <ele>237</ele>
        <time>2021-08-05T15:19:07Z</time>
      </trkpt>
      <trkpt lat="43.13804" lon="-1.22064">
        <ele>237.01</ele>
        <time>2021-08-05T15:19:10Z</time>
      </trkpt>
      <trkpt lat="43.13822" lon="-1.22066">
        <ele>237.91</ele>
        <time>2021-08-05T15:19:14Z</time>
      </trkpt>
      <trkpt lat="43.13855" lon="-1.22061">
        <ele>239.59</ele>
        <time>2021-08-05T15:19:18Z</time>
      </trkpt>
      <trkpt lat="43.13907" lon="-1.22032">
        <ele>244.49</ele>
        <time>2021-08-05T15:19:23Z</time>
      </trkpt>
      <trkpt lat="43.13941" lon="-1.22016">
        <ele>248.51</ele>
        <time>2021-08-05T15:19:26Z</time>
      </trkpt>
      <trkpt lat="43.13996" lon="-1.22034">
        <ele>254.13</ele>
        <time>2021-08-05T15:19:30Z</time>
      </trkpt>
      <trkpt lat="43.14028" lon="-1.22071">
        <ele>258.52</ele>
        <time>2021-08-05T15:19:33Z</time>
      </trkpt>
      <trkpt lat="43.14051" lon="-1.22091">
        <ele>261.66</ele>
        <time>2021-08-05T15:19:35Z</time>
      </trkpt>
      <trkpt lat="43.14077" lon="-1.22096">
        <ele>264.78</ele>
        <time>2021-08-05T15:19:37Z</time>
      </trkpt>
      <trkpt lat="43.14109" lon="-1.2207">
        <ele>269.17</ele>
        <time>2021-08-05T15:19:40Z</time>
      </trkpt>
      <trkpt lat="43.14124" lon="-1.22022">
        <ele>272.79</ele>
        <time>2021-08-05T15:19:43Z</time>
      </trkpt>
      <trkpt lat="43.14161" lon="-1.21984">
        <ele>277.36</ele>
        <time>2021-08-05T15:19:49Z</time>
      </trkpt>
      <trkpt lat="43.14188" lon="-1.22008">
        <ele>279.03</ele>
        <time>2021-08-05T15:19:52Z</time>
      </trkpt>
      <trkpt lat="43.14206" lon="-1.21994">
        <ele>283.4</ele>
        <time>2021-08-05T15:19:58Z</time>
      </trkpt>
      <trkpt lat="43.14216" lon="-1.21972">
        <ele>286.98</ele>
        <time>2021-08-05T15:20:01Z</time>
      </trkpt>
      <trkpt lat="43.14243" lon="-1.2197">
        <ele>290.1</ele>
        <time>2021-08-05T15:20:04Z</time>
      </trkpt>
      <trkpt lat="43.14255" lon="-1.21974">
        <ele>291.15</ele>
        <time>2021-08-05T15:20:05Z</time>
      </trkpt>
      <trkpt lat="43.14281" lon="-1.2198">
        <ele>293.32</ele>
        <time>2021-08-05T15:20:07Z</time>
      </trkpt>
      <trkpt lat="43.14328" lon="-1.21971">
        <ele>297.91</ele>
        <time>2021-08-05T15:20:11Z</time>
      </trkpt>
      <trkpt lat="43.14385" lon="-1.21941">
        <ele>300.72</ele>
        <time>2021-08-05T15:20:15Z</time>
      </trkpt>
      <trkpt lat="43.14494" lon="-1.21924">
        <ele>300.79</ele>
        <time>2021-08-05T15:20:22Z</time>
      </trkpt>
      <trkpt lat="43.1459" lon="-1.21891">
        <ele>301.26</ele>
        <time>2021-08-05T15:20:29Z</time>
      </trkpt>
      <trkpt lat="43.1465" lon="-1.21823">
        <ele>299.62</ele>
        <time>2021-08-05T15:20:37Z</time>
      </trkpt>
      <trkpt lat="43.14658" lon="-1.21815">
        <ele>296.16</ele>
        <time>2021-08-05T15:20:42Z</time>
      </trkpt>
      <trkpt lat="43.14663" lon="-1.21809">
        <ele>295.72</ele>
        <time>2021-08-05T15:20:43Z</time>
      </trkpt>
      <trkpt lat="43.14669" lon="-1.21799">
        <ele>295.32</ele>
        <time>2021-08-05T15:20:44Z</time>
      </trkpt>
      <trkpt lat="43.14672" lon="-1.21786">
        <ele>295</ele>
        <time>2021-08-05T15:20:45Z</time>
      </trkpt>
      <trkpt lat="43.14675" lon="-1.21771">
        <ele>294.74</ele>
        <time>2021-08-05T15:20:46Z</time>
      </trkpt>
      <trkpt lat="43.14676" lon="-1.21758">
        <ele>294.5</ele>
        <time>2021-08-05T15:20:47Z</time>
      </trkpt>
      <trkpt lat="43.14678" lon="-1.21746">
        <ele>294.22</ele>
        <time>2021-08-05T15:20:48Z</time>
      </trkpt>
      <trkpt lat="43.14679" lon="-1.21737">
        <ele>293.85</ele>
        <time>2021-08-05T15:20:49Z</time>
      </trkpt>
      <trkpt lat="43.14681" lon="-1.21732">
        <ele>293.34</ele>
        <time>2021-08-05T15:20:50Z</time>
      </trkpt>
      <trkpt lat="43.1469" lon="-1.21724">
        <ele>291.64</ele>
        <time>2021-08-05T15:20:53Z</time>
      </trkpt>
      <trkpt lat="43.14723" lon="-1.21646">
        <ele>288.95</ele>
        <time>2021-08-05T15:20:59Z</time>
      </trkpt>
      <trkpt lat="43.14726" lon="-1.21587">
        <ele>285.76</ele>
        <time>2021-08-05T15:21:03Z</time>
      </trkpt>
      <trkpt lat="43.14725" lon="-1.21534">
        <ele>282.19</ele>
        <time>2021-08-05T15:21:06Z</time>
      </trkpt>
      <trkpt lat="43.14732" lon="-1.21493">
        <ele>279.71</ele>
        <time>2021-08-05T15:21:08Z</time>
      </trkpt>
      <trkpt lat="43.14725" lon="-1.21406">
        <ele>274.4</ele>
        <time>2021-08-05T15:21:12Z</time>
      </trkpt>
      <trkpt lat="43.14729" lon="-1.2137">
        <ele>271.39</ele>
        <time>2021-08-05T15:21:14Z</time>
      </trkpt>
      <trkpt lat="43.14743" lon="-1.21335">
        <ele>268.03</ele>
        <time>2021-08-05T15:21:16Z</time>
      </trkpt>
      <trkpt lat="43.14765" lon="-1.21301">
        <ele>265.01</ele>
        <time>2021-08-05T15:21:18Z</time>
      </trkpt>
      <trkpt lat="43.14787" lon="-1.2127">
        <ele>262.64</ele>
        <time>2021-08-05T15:21:20Z</time>
      </trkpt>
      <trkpt lat="43.1481" lon="-1.2118">
        <ele>258.54</ele>
        <time>2021-08-05T15:21:26Z</time>
      </trkpt>
      <trkpt lat="43.14802" lon="-1.21135">
        <ele>258.48</ele>
        <time>2021-08-05T15:21:29Z</time>
      </trkpt>
      <trkpt lat="43.14787" lon="-1.21075">
        <ele>260.98</ele>
        <time>2021-08-05T15:21:36Z</time>
      </trkpt>
      <trkpt lat="43.14784" lon="-1.21066">
        <ele>262.26</ele>
        <time>2021-08-05T15:21:39Z</time>
      </trkpt>
      <trkpt lat="43.1478" lon="-1.21054">
        <ele>262.51</ele>
        <time>2021-08-05T15:21:41Z</time>
      </trkpt>
      <trkpt lat="43.14742" lon="-1.2099">
        <ele>261.39</ele>
        <time>2021-08-05T15:21:48Z</time>
      </trkpt>
      <trkpt lat="43.14744" lon="-1.2097">
        <ele>260.68</ele>
        <time>2021-08-05T15:21:49Z</time>
      </trkpt>
      <trkpt lat="43.14744" lon="-1.20847">
        <ele>256.8</ele>
        <time>2021-08-05T15:21:55Z</time>
      </trkpt>
      <trkpt lat="43.14726" lon="-1.20734">
        <ele>253.84</ele>
        <time>2021-08-05T15:22:02Z</time>
      </trkpt>
      <trkpt lat="43.14724" lon="-1.20722">
        <ele>253.34</ele>
        <time>2021-08-05T15:22:03Z</time>
      </trkpt>
      <trkpt lat="43.14729" lon="-1.20675">
        <ele>251.94</ele>
        <time>2021-08-05T15:22:07Z</time>
      </trkpt>
      <trkpt lat="43.14735" lon="-1.20658">
        <ele>251.75</ele>
        <time>2021-08-05T15:22:09Z</time>
      </trkpt>
      <trkpt lat="43.14738" lon="-1.20612">
        <ele>252.18</ele>
        <time>2021-08-05T15:22:14Z</time>
      </trkpt>
      <trkpt lat="43.14728" lon="-1.20524">
        <ele>252.6</ele>
        <time>2021-08-05T15:22:19Z</time>
      </trkpt>
      <trkpt lat="43.14671" lon="-1.20363">
        <ele>250.09</ele>
        <time>2021-08-05T15:22:28Z</time>
      </trkpt>
      <trkpt lat="43.14631" lon="-1.20246">
        <ele>249.66</ele>
        <time>2021-08-05T15:22:36Z</time>
      </trkpt>
      <trkpt lat="43.14631" lon="-1.20169">
        <ele>249.24</ele>
        <time>2021-08-05T15:22:41Z</time>
      </trkpt>
      <trkpt lat="43.14636" lon="-1.2013">
        <ele>249.09</ele>
        <time>2021-08-05T15:22:43Z</time>
      </trkpt>
      <trkpt lat="43.14623" lon="-1.19959">
        <ele>251.5</ele>
        <time>2021-08-05T15:22:51Z</time>
      </trkpt>
      <trkpt lat="43.14611" lon="-1.19866">
        <ele>254.45</ele>
        <time>2021-08-05T15:22:55Z</time>
      </trkpt>
      <trkpt lat="43.14616" lon="-1.19754">
        <ele>259.23</ele>
        <time>2021-08-05T15:23:00Z</time>
      </trkpt>
      <trkpt lat="43.14603" lon="-1.19687">
        <ele>263.84</ele>
        <time>2021-08-05T15:23:04Z</time>
      </trkpt>
      <trkpt lat="43.14595" lon="-1.19677">
        <ele>265.05</ele>
        <time>2021-08-05T15:23:05Z</time>
      </trkpt>
      <trkpt lat="43.14567" lon="-1.19644">
        <ele>269.39</ele>
        <time>2021-08-05T15:23:09Z</time>
      </trkpt>
      <trkpt lat="43.1454" lon="-1.19616">
        <ele>272.96</ele>
        <time>2021-08-05T15:23:13Z</time>
      </trkpt>
      <trkpt lat="43.14526" lon="-1.19601">
        <ele>274.85</ele>
        <time>2021-08-05T15:23:15Z</time>
      </trkpt>
      <trkpt lat="43.14504" lon="-1.19589">
        <ele>278.7</ele>
        <time>2021-08-05T15:23:19Z</time>
      </trkpt>
      <trkpt lat="43.14499" lon="-1.19584">
        <ele>279.84</ele>
        <time>2021-08-05T15:23:21Z</time>
      </trkpt>
      <trkpt lat="43.14509" lon="-1.19564">
        <ele>282.17</ele>
        <time>2021-08-05T15:23:25Z</time>
      </trkpt>
      <trkpt lat="43.14543" lon="-1.19522">
        <ele>285.72</ele>
        <time>2021-08-05T15:23:31Z</time>
      </trkpt>
      <trkpt lat="43.14547" lon="-1.19519">
        <ele>286.2</ele>
        <time>2021-08-05T15:23:32Z</time>
      </trkpt>
      <trkpt lat="43.14552" lon="-1.19516">
        <ele>286.58</ele>
        <time>2021-08-05T15:23:33Z</time>
      </trkpt>
      <trkpt lat="43.14559" lon="-1.19514">
        <ele>287</ele>
        <time>2021-08-05T15:23:34Z</time>
      </trkpt>
      <trkpt lat="43.14575" lon="-1.19506">
        <ele>287.76</ele>
        <time>2021-08-05T15:23:36Z</time>
      </trkpt>
      <trkpt lat="43.14636" lon="-1.19475">
        <ele>287.89</ele>
        <time>2021-08-05T15:23:42Z</time>
      </trkpt>
      <trkpt lat="43.14721" lon="-1.1947">
        <ele>284.45</ele>
        <time>2021-08-05T15:23:50Z</time>
      </trkpt>
      <trkpt lat="43.14742" lon="-1.19464">
        <ele>282.66</ele>
        <time>2021-08-05T15:23:53Z</time>
      </trkpt>
      <trkpt lat="43.14768" lon="-1.19463">
        <ele>280.74</ele>
        <time>2021-08-05T15:23:57Z</time>
      </trkpt>
      <trkpt lat="43.14798" lon="-1.19457">
        <ele>279.54</ele>
        <time>2021-08-05T15:24:00Z</time>
      </trkpt>
      <trkpt lat="43.14822" lon="-1.19447">
        <ele>279.21</ele>
        <time>2021-08-05T15:24:02Z</time>
      </trkpt>
      <trkpt lat="43.14835" lon="-1.19437">
        <ele>279.01</ele>
        <time>2021-08-05T15:24:03Z</time>
      </trkpt>
      <trkpt lat="43.14857" lon="-1.19405">
        <ele>278.34</ele>
        <time>2021-08-05T15:24:05Z</time>
      </trkpt>
      <trkpt lat="43.14961" lon="-1.19247">
        <ele>274.95</ele>
        <time>2021-08-05T15:24:13Z</time>
      </trkpt>
      <trkpt lat="43.15037" lon="-1.19178">
        <ele>273.13</ele>
        <time>2021-08-05T15:24:18Z</time>
      </trkpt>
      <trkpt lat="43.15102" lon="-1.19041">
        <ele>271.33</ele>
        <time>2021-08-05T15:24:26Z</time>
      </trkpt>
      <trkpt lat="43.15125" lon="-1.19011">
        <ele>271.33</ele>
        <time>2021-08-05T15:24:28Z</time>
      </trkpt>
      <trkpt lat="43.15165" lon="-1.18977">
        <ele>271.23</ele>
        <time>2021-08-05T15:24:31Z</time>
      </trkpt>
      <trkpt lat="43.15191" lon="-1.18958">
        <ele>270.59</ele>
        <time>2021-08-05T15:24:33Z</time>
      </trkpt>
      <trkpt lat="43.15201" lon="-1.18944">
        <ele>270.13</ele>
        <time>2021-08-05T15:24:34Z</time>
      </trkpt>
      <trkpt lat="43.1521" lon="-1.18928">
        <ele>269.56</ele>
        <time>2021-08-05T15:24:35Z</time>
      </trkpt>
      <trkpt lat="43.15216" lon="-1.18909">
        <ele>268.88</ele>
        <time>2021-08-05T15:24:36Z</time>
      </trkpt>
      <trkpt lat="43.15222" lon="-1.18889">
        <ele>268.08</ele>
        <time>2021-08-05T15:24:37Z</time>
      </trkpt>
      <trkpt lat="43.1525" lon="-1.18783">
        <ele>263.67</ele>
        <time>2021-08-05T15:24:42Z</time>
      </trkpt>
      <trkpt lat="43.15265" lon="-1.18725">
        <ele>260.63</ele>
        <time>2021-08-05T15:24:45Z</time>
      </trkpt>
      <trkpt lat="43.1531" lon="-1.18685">
        <ele>256.43</ele>
        <time>2021-08-05T15:24:49Z</time>
      </trkpt>
      <trkpt lat="43.15335" lon="-1.18685">
        <ele>254.95</ele>
        <time>2021-08-05T15:24:51Z</time>
      </trkpt>
      <trkpt lat="43.1538" lon="-1.18657">
        <ele>252.52</ele>
        <time>2021-08-05T15:24:56Z</time>
      </trkpt>
      <trkpt lat="43.15378" lon="-1.18592">
        <ele>252.86</ele>
        <time>2021-08-05T15:25:00Z</time>
      </trkpt>
      <trkpt lat="43.15423" lon="-1.18565">
        <ele>255.97</ele>
        <time>2021-08-05T15:25:05Z</time>
      </trkpt>
      <trkpt lat="43.15471" lon="-1.18531">
        <ele>259.79</ele>
        <time>2021-08-05T15:25:10Z</time>
      </trkpt>
      <trkpt lat="43.15482" lon="-1.18532">
        <ele>260.66</ele>
        <time>2021-08-05T15:25:11Z</time>
      </trkpt>
      <trkpt lat="43.15499" lon="-1.18533">
        <ele>262.04</ele>
        <time>2021-08-05T15:25:13Z</time>
      </trkpt>
      <trkpt lat="43.15509" lon="-1.1853">
        <ele>263.97</ele>
        <time>2021-08-05T15:25:17Z</time>
      </trkpt>
      <trkpt lat="43.15516" lon="-1.1853">
        <ele>264.77</ele>
        <time>2021-08-05T15:25:20Z</time>
      </trkpt>
      <trkpt lat="43.15559" lon="-1.18578">
        <ele>265.68</ele>
        <time>2021-08-05T15:25:26Z</time>
      </trkpt>
      <trkpt lat="43.15658" lon="-1.18676">
        <ele>266.34</ele>
        <time>2021-08-05T15:25:33Z</time>
      </trkpt>
      <trkpt lat="43.15812" lon="-1.18826">
        <ele>266.39</ele>
        <time>2021-08-05T15:25:41Z</time>
      </trkpt>
      <trkpt lat="43.15972" lon="-1.18969">
        <ele>264.53</ele>
        <time>2021-08-05T15:25:49Z</time>
      </trkpt>
      <trkpt lat="43.16068" lon="-1.19057">
        <ele>261.22</ele>
        <time>2021-08-05T15:25:55Z</time>
      </trkpt>
      <trkpt lat="43.16214" lon="-1.19189">
        <ele>258.78</ele>
        <time>2021-08-05T15:26:04Z</time>
      </trkpt>
      <trkpt lat="43.1632" lon="-1.19259">
        <ele>255.9</ele>
        <time>2021-08-05T15:26:11Z</time>
      </trkpt>
      <trkpt lat="43.16406" lon="-1.19312">
        <ele>252.8</ele>
        <time>2021-08-05T15:26:18Z</time>
      </trkpt>
      <trkpt lat="43.16449" lon="-1.19337">
        <ele>249.54</ele>
        <time>2021-08-05T15:26:23Z</time>
      </trkpt>
      <trkpt lat="43.16519" lon="-1.19376">
        <ele>246.97</ele>
        <time>2021-08-05T15:26:34Z</time>
      </trkpt>
      <trkpt lat="43.16535" lon="-1.19383">
        <ele>248.15</ele>
        <time>2021-08-05T15:26:43Z</time>
      </trkpt>
      <trkpt lat="43.1654" lon="-1.19381">
        <ele>248.45</ele>
        <time>2021-08-05T15:26:46Z</time>
      </trkpt>
      <trkpt lat="43.16546" lon="-1.1936">
        <ele>248.76</ele>
        <time>2021-08-05T15:26:50Z</time>
      </trkpt>
      <trkpt lat="43.16557" lon="-1.19267">
        <ele>249.37</ele>
        <time>2021-08-05T15:26:57Z</time>
      </trkpt>
      <trkpt lat="43.16582" lon="-1.19076">
        <ele>250.8</ele>
        <time>2021-08-05T15:27:05Z</time>
      </trkpt>
      <trkpt lat="43.16607" lon="-1.18897">
        <ele>253.09</ele>
        <time>2021-08-05T15:27:13Z</time>
      </trkpt>
      <trkpt lat="43.16619" lon="-1.18813">
        <ele>254.71</ele>
        <time>2021-08-05T15:27:18Z</time>
      </trkpt>
      <trkpt lat="43.16671" lon="-1.18763">
        <ele>257.14</ele>
        <time>2021-08-05T15:27:24Z</time>
      </trkpt>
      <trkpt lat="43.1671" lon="-1.18778">
        <ele>257.45</ele>
        <time>2021-08-05T15:27:27Z</time>
      </trkpt>
      <trkpt lat="43.16821" lon="-1.18826">
        <ele>254.03</ele>
        <time>2021-08-05T15:27:35Z</time>
      </trkpt>
      <trkpt lat="43.16877" lon="-1.18846">
        <ele>250.74</ele>
        <time>2021-08-05T15:27:40Z</time>
      </trkpt>
      <trkpt lat="43.169" lon="-1.18851">
        <ele>247.45</ele>
        <time>2021-08-05T15:27:45Z</time>
      </trkpt>
      <trkpt lat="43.16911" lon="-1.18852">
        <ele>245.49</ele>
        <time>2021-08-05T15:27:50Z</time>
      </trkpt>
      <trkpt lat="43.16937" lon="-1.18809">
        <ele>244.12</ele>
        <time>2021-08-05T15:27:56Z</time>
      </trkpt>
      <trkpt lat="43.16962" lon="-1.18766">
        <ele>243.64</ele>
        <time>2021-08-05T15:27:59Z</time>
      </trkpt>
      <trkpt lat="43.1708" lon="-1.1865">
        <ele>242.54</ele>
        <time>2021-08-05T15:28:08Z</time>
      </trkpt>
      <trkpt lat="43.1725" lon="-1.18511">
        <ele>242.58</ele>
        <time>2021-08-05T15:28:20Z</time>
      </trkpt>
      <trkpt lat="43.17432" lon="-1.18363">
        <ele>240.37</ele>
        <time>2021-08-05T15:28:33Z</time>
      </trkpt>
      <trkpt lat="43.17595" lon="-1.18238">
        <ele>239.86</ele>
        <time>2021-08-05T15:28:44Z</time>
      </trkpt>
      <trkpt lat="43.17717" lon="-1.18139">
        <ele>242.87</ele>
        <time>2021-08-05T15:28:52Z</time>
      </trkpt>
      <trkpt lat="43.17781" lon="-1.18086">
        <ele>246.26</ele>
        <time>2021-08-05T15:28:57Z</time>
      </trkpt>
      <trkpt lat="43.17844" lon="-1.18036">
        <ele>249.86</ele>
        <time>2021-08-05T15:29:02Z</time>
      </trkpt>
      <trkpt lat="43.17915" lon="-1.17979">
        <ele>253.44</ele>
        <time>2021-08-05T15:29:07Z</time>
      </trkpt>
      <trkpt lat="43.18061" lon="-1.17861">
        <ele>254.38</ele>
        <time>2021-08-05T15:29:16Z</time>
      </trkpt>
      <trkpt lat="43.18163" lon="-1.17778">
        <ele>251.34</ele>
        <time>2021-08-05T15:29:22Z</time>
      </trkpt>
      <trkpt lat="43.18273" lon="-1.17669">
        <ele>249.24</ele>
        <time>2021-08-05T15:29:29Z</time>
      </trkpt>
      <trkpt lat="43.18313" lon="-1.1756">
        <ele>248.69</ele>
        <time>2021-08-05T15:29:34Z</time>
      </trkpt>
      <trkpt lat="43.18363" lon="-1.17273">
        <ele>246.82</ele>
        <time>2021-08-05T15:29:46Z</time>
      </trkpt>
      <trkpt lat="43.18446" lon="-1.17139">
        <ele>246.33</ele>
        <time>2021-08-05T15:29:53Z</time>
      </trkpt>
      <trkpt lat="43.18594" lon="-1.17014">
        <ele>245.65</ele>
        <time>2021-08-05T15:30:04Z</time>
      </trkpt>
      <trkpt lat="43.18701" lon="-1.16925">
        <ele>248.7</ele>
        <time>2021-08-05T15:30:15Z</time>
      </trkpt>
      <trkpt lat="43.18746" lon="-1.16887">
        <ele>251.71</ele>
        <time>2021-08-05T15:30:20Z</time>
      </trkpt>
      <trkpt lat="43.18791" lon="-1.16848">
        <ele>255.33</ele>
        <time>2021-08-05T15:30:25Z</time>
      </trkpt>
      <trkpt lat="43.18842" lon="-1.16803">
        <ele>259.1</ele>
        <time>2021-08-05T15:30:30Z</time>
      </trkpt>
      <trkpt lat="43.18883" lon="-1.16759">
        <ele>262.66</ele>
        <time>2021-08-05T15:30:35Z</time>
      </trkpt>
      <trkpt lat="43.18936" lon="-1.16697">
        <ele>265.93</ele>
        <time>2021-08-05T15:30:41Z</time>
      </trkpt>
      <trkpt lat="43.19029" lon="-1.16596">
        <ele>269.01</ele>
        <time>2021-08-05T15:30:51Z</time>
      </trkpt>
      <trkpt lat="43.19115" lon="-1.1651">
        <ele>272.38</ele>
        <time>2021-08-05T15:31:01Z</time>
      </trkpt>
      <trkpt lat="43.19158" lon="-1.16499">
        <ele>274.07</ele>
        <time>2021-08-05T15:31:05Z</time>
      </trkpt>
      <trkpt lat="43.19249" lon="-1.1649">
        <ele>277.53</ele>
        <time>2021-08-05T15:31:12Z</time>
      </trkpt>
      <trkpt lat="43.19333" lon="-1.1643">
        <ele>277.72</ele>
        <time>2021-08-05T15:31:18Z</time>
      </trkpt>
      <trkpt lat="43.19413" lon="-1.16306">
        <ele>273.51</ele>
        <time>2021-08-05T15:31:24Z</time>
      </trkpt>
      <trkpt lat="43.19449" lon="-1.16235">
        <ele>270.03</ele>
        <time>2021-08-05T15:31:27Z</time>
      </trkpt>
      <trkpt lat="43.19484" lon="-1.16164">
        <ele>266.26</ele>
        <time>2021-08-05T15:31:30Z</time>
      </trkpt>
      <trkpt lat="43.19519" lon="-1.16093">
        <ele>262.78</ele>
        <time>2021-08-05T15:31:33Z</time>
      </trkpt>
      <trkpt lat="43.19551" lon="-1.16024">
        <ele>260.1</ele>
        <time>2021-08-05T15:31:36Z</time>
      </trkpt>
      <trkpt lat="43.19657" lon="-1.158">
        <ele>263.37</ele>
        <time>2021-08-05T15:31:46Z</time>
      </trkpt>
      <trkpt lat="43.19708" lon="-1.15695">
        <ele>266.43</ele>
        <time>2021-08-05T15:31:51Z</time>
      </trkpt>
      <trkpt lat="43.19773" lon="-1.15504">
        <ele>269.22</ele>
        <time>2021-08-05T15:32:00Z</time>
      </trkpt>
      <trkpt lat="43.19794" lon="-1.15347">
        <ele>272.61</ele>
        <time>2021-08-05T15:32:07Z</time>
      </trkpt>
      <trkpt lat="43.19832" lon="-1.15204">
        <ele>275.95</ele>
        <time>2021-08-05T15:32:14Z</time>
      </trkpt>
      <trkpt lat="43.19882" lon="-1.15117">
        <ele>278.22</ele>
        <time>2021-08-05T15:32:19Z</time>
      </trkpt>
      <trkpt lat="43.19953" lon="-1.15062">
        <ele>279.01</ele>
        <time>2021-08-05T15:32:24Z</time>
      </trkpt>
      <trkpt lat="43.20103" lon="-1.14977">
        <ele>275.9</ele>
        <time>2021-08-05T15:32:33Z</time>
      </trkpt>
      <trkpt lat="43.20289" lon="-1.14805">
        <ele>274.55</ele>
        <time>2021-08-05T15:32:45Z</time>
      </trkpt>
      <trkpt lat="43.20372" lon="-1.14707">
        <ele>277.67</ele>
        <time>2021-08-05T15:32:51Z</time>
      </trkpt>
      <trkpt lat="43.20444" lon="-1.14613">
        <ele>280.27</ele>
        <time>2021-08-05T15:32:56Z</time>
      </trkpt>
      <trkpt lat="43.20596" lon="-1.14388">
        <ele>280.63</ele>
        <time>2021-08-05T15:33:07Z</time>
      </trkpt>
      <trkpt lat="43.20741" lon="-1.14149">
        <ele>283.18</ele>
        <time>2021-08-05T15:33:18Z</time>
      </trkpt>
      <trkpt lat="43.20815" lon="-1.14053">
        <ele>286.25</ele>
        <time>2021-08-05T15:33:23Z</time>
      </trkpt>
      <trkpt lat="43.20875" lon="-1.13974">
        <ele>289.41</ele>
        <time>2021-08-05T15:33:27Z</time>
      </trkpt>
      <trkpt lat="43.20935" lon="-1.13896">
        <ele>293.42</ele>
        <time>2021-08-05T15:33:31Z</time>
      </trkpt>
      <trkpt lat="43.20992" lon="-1.13821">
        <ele>297.19</ele>
        <time>2021-08-05T15:33:35Z</time>
      </trkpt>
      <trkpt lat="43.21046" lon="-1.13749">
        <ele>300.42</ele>
        <time>2021-08-05T15:33:39Z</time>
      </trkpt>
      <trkpt lat="43.21101" lon="-1.13678">
        <ele>303.69</ele>
        <time>2021-08-05T15:33:43Z</time>
      </trkpt>
      <trkpt lat="43.21149" lon="-1.13632">
        <ele>305.35</ele>
        <time>2021-08-05T15:33:46Z</time>
      </trkpt>
      <trkpt lat="43.21261" lon="-1.13515">
        <ele>303.07</ele>
        <time>2021-08-05T15:33:53Z</time>
      </trkpt>
      <trkpt lat="43.21299" lon="-1.13451">
        <ele>300</ele>
        <time>2021-08-05T15:33:56Z</time>
      </trkpt>
      <trkpt lat="43.21335" lon="-1.13382">
        <ele>296.29</ele>
        <time>2021-08-05T15:33:59Z</time>
      </trkpt>
      <trkpt lat="43.21345" lon="-1.13356">
        <ele>294.96</ele>
        <time>2021-08-05T15:34:00Z</time>
      </trkpt>
      <trkpt lat="43.21362" lon="-1.13243">
        <ele>289.33</ele>
        <time>2021-08-05T15:34:04Z</time>
      </trkpt>
      <trkpt lat="43.21359" lon="-1.1313">
        <ele>283.67</ele>
        <time>2021-08-05T15:34:08Z</time>
      </trkpt>
      <trkpt lat="43.21356" lon="-1.13048">
        <ele>279.31</ele>
        <time>2021-08-05T15:34:11Z</time>
      </trkpt>
      <trkpt lat="43.21359" lon="-1.12994">
        <ele>276.27</ele>
        <time>2021-08-05T15:34:13Z</time>
      </trkpt>
      <trkpt lat="43.21369" lon="-1.1294">
        <ele>273.33</ele>
        <time>2021-08-05T15:34:15Z</time>
      </trkpt>
      <trkpt lat="43.21396" lon="-1.12867">
        <ele>268.78</ele>
        <time>2021-08-05T15:34:18Z</time>
      </trkpt>
      <trkpt lat="43.21429" lon="-1.12799">
        <ele>264.42</ele>
        <time>2021-08-05T15:34:21Z</time>
      </trkpt>
      <trkpt lat="43.21458" lon="-1.12732">
        <ele>260.01</ele>
        <time>2021-08-05T15:34:24Z</time>
      </trkpt>
      <trkpt lat="43.21485" lon="-1.12661">
        <ele>255.55</ele>
        <time>2021-08-05T15:34:27Z</time>
      </trkpt>
      <trkpt lat="43.21514" lon="-1.12591">
        <ele>251.16</ele>
        <time>2021-08-05T15:34:30Z</time>
      </trkpt>
      <trkpt lat="43.2157" lon="-1.12511">
        <ele>245.74</ele>
        <time>2021-08-05T15:34:34Z</time>
      </trkpt>
      <trkpt lat="43.21635" lon="-1.12447">
        <ele>240.91</ele>
        <time>2021-08-05T15:34:38Z</time>
      </trkpt>
      <trkpt lat="43.21681" lon="-1.124">
        <ele>237.87</ele>
        <time>2021-08-05T15:34:41Z</time>
      </trkpt>
      <trkpt lat="43.2174" lon="-1.12341">
        <ele>234.51</ele>
        <time>2021-08-05T15:34:45Z</time>
      </trkpt>
      <trkpt lat="43.21815" lon="-1.12265">
        <ele>231.28</ele>
        <time>2021-08-05T15:34:50Z</time>
      </trkpt>
      <trkpt lat="43.21878" lon="-1.12202">
        <ele>228.02</ele>
        <time>2021-08-05T15:34:54Z</time>
      </trkpt>
      <trkpt lat="43.21941" lon="-1.12133">
        <ele>224.95</ele>
        <time>2021-08-05T15:34:58Z</time>
      </trkpt>
      <trkpt lat="43.22016" lon="-1.12039">
        <ele>221.51</ele>
        <time>2021-08-05T15:35:03Z</time>
      </trkpt>
      <trkpt lat="43.22114" lon="-1.11891">
        <ele>218.51</ele>
        <time>2021-08-05T15:35:10Z</time>
      </trkpt>
      <trkpt lat="43.22226" lon="-1.11688">
        <ele>215.44</ele>
        <time>2021-08-05T15:35:19Z</time>
      </trkpt>
      <trkpt lat="43.22429" lon="-1.11302">
        <ele>212.91</ele>
        <time>2021-08-05T15:35:37Z</time>
      </trkpt>
      <trkpt lat="43.22578" lon="-1.11001">
        <ele>210.42</ele>
        <time>2021-08-05T15:35:50Z</time>
      </trkpt>
      <trkpt lat="43.22717" lon="-1.10742">
        <ele>207.39</ele>
        <time>2021-08-05T15:36:01Z</time>
      </trkpt>
      <trkpt lat="43.22897" lon="-1.10402">
        <ele>207.17</ele>
        <time>2021-08-05T15:36:15Z</time>
      </trkpt>
      <trkpt lat="43.23009" lon="-1.10204">
        <ele>208.85</ele>
        <time>2021-08-05T15:36:24Z</time>
      </trkpt>
      <trkpt lat="43.23061" lon="-1.1011">
        <ele>212.22</ele>
        <time>2021-08-05T15:36:29Z</time>
      </trkpt>
      <trkpt lat="43.23171" lon="-1.09901">
        <ele>213.89</ele>
        <time>2021-08-05T15:36:41Z</time>
      </trkpt>
      <trkpt lat="43.23228" lon="-1.09792">
        <ele>210.54</ele>
        <time>2021-08-05T15:36:47Z</time>
      </trkpt>
      <trkpt lat="43.23261" lon="-1.09725">
        <ele>206.93</ele>
        <time>2021-08-05T15:36:51Z</time>
      </trkpt>
      <trkpt lat="43.23292" lon="-1.09673">
        <ele>203.61</ele>
        <time>2021-08-05T15:36:56Z</time>
      </trkpt>
      <trkpt lat="43.23298" lon="-1.09666">
        <ele>203.39</ele>
        <time>2021-08-05T15:36:57Z</time>
      </trkpt>
      <trkpt lat="43.23303" lon="-1.0966">
        <ele>203.27</ele>
        <time>2021-08-05T15:36:58Z</time>
      </trkpt>
      <trkpt lat="43.23323" lon="-1.09608">
        <ele>203.53</ele>
        <time>2021-08-05T15:37:04Z</time>
      </trkpt>
      <trkpt lat="43.23382" lon="-1.09495">
        <ele>206.16</ele>
        <time>2021-08-05T15:37:13Z</time>
      </trkpt>
      <trkpt lat="43.23474" lon="-1.09323">
        <ele>206.05</ele>
        <time>2021-08-05T15:37:22Z</time>
      </trkpt>
      <trkpt lat="43.23548" lon="-1.09183">
        <ele>203.52</ele>
        <time>2021-08-05T15:37:30Z</time>
      </trkpt>
      <trkpt lat="43.23651" lon="-1.08988">
        <ele>200.1</ele>
        <time>2021-08-05T15:37:40Z</time>
      </trkpt>
      <trkpt lat="43.23707" lon="-1.08883">
        <ele>197.06</ele>
        <time>2021-08-05T15:37:45Z</time>
      </trkpt>
      <trkpt lat="43.2382" lon="-1.08681">
        <ele>196.44</ele>
        <time>2021-08-05T15:37:56Z</time>
      </trkpt>
      <trkpt lat="43.23952" lon="-1.08429">
        <ele>195.25</ele>
        <time>2021-08-05T15:38:09Z</time>
      </trkpt>
      <trkpt lat="43.24039" lon="-1.0823">
        <ele>194.71</ele>
        <time>2021-08-05T15:38:16Z</time>
      </trkpt>
      <trkpt lat="43.24154" lon="-1.08018">
        <ele>194.58</ele>
        <time>2021-08-05T15:38:23Z</time>
      </trkpt>
      <trkpt lat="43.24256" lon="-1.07837">
        <ele>191.63</ele>
        <time>2021-08-05T15:38:31Z</time>
      </trkpt>
      <trkpt lat="43.24366" lon="-1.07637">
        <ele>188.52</ele>
        <time>2021-08-05T15:38:40Z</time>
      </trkpt>
      <trkpt lat="43.24437" lon="-1.07504">
        <ele>185.3</ele>
        <time>2021-08-05T15:38:46Z</time>
      </trkpt>
      <trkpt lat="43.24494" lon="-1.07386">
        <ele>181.65</ele>
        <time>2021-08-05T15:38:51Z</time>
      </trkpt>
      <trkpt lat="43.24567" lon="-1.07236">
        <ele>178.56</ele>
        <time>2021-08-05T15:38:57Z</time>
      </trkpt>
      <trkpt lat="43.24747" lon="-1.06907">
        <ele>177.9</ele>
        <time>2021-08-05T15:39:10Z</time>
      </trkpt>
      <trkpt lat="43.2488" lon="-1.06672">
        <ele>178.03</ele>
        <time>2021-08-05T15:39:20Z</time>
      </trkpt>
      <trkpt lat="43.25021" lon="-1.06443">
        <ele>174.73</ele>
        <time>2021-08-05T15:39:30Z</time>
      </trkpt>
      <trkpt lat="43.25066" lon="-1.06341">
        <ele>171.32</ele>
        <time>2021-08-05T15:39:34Z</time>
      </trkpt>
      <trkpt lat="43.25104" lon="-1.06201">
        <ele>168.3</ele>
        <time>2021-08-05T15:39:39Z</time>
      </trkpt>
      <trkpt lat="43.25149" lon="-1.05905">
        <ele>168.03</ele>
        <time>2021-08-05T15:39:49Z</time>
      </trkpt>
      <trkpt lat="43.25159" lon="-1.05789">
        <ele>171.22</ele>
        <time>2021-08-05T15:39:53Z</time>
      </trkpt>
      <trkpt lat="43.25167" lon="-1.05704">
        <ele>175.43</ele>
        <time>2021-08-05T15:39:56Z</time>
      </trkpt>
      <trkpt lat="43.25175" lon="-1.05649">
        <ele>177.61</ele>
        <time>2021-08-05T15:39:58Z</time>
      </trkpt>
      <trkpt lat="43.25207" lon="-1.05519">
        <ele>181.79</ele>
        <time>2021-08-05T15:40:03Z</time>
      </trkpt>
      <trkpt lat="43.25228" lon="-1.05444">
        <ele>182.52</ele>
        <time>2021-08-05T15:40:06Z</time>
      </trkpt>
      <trkpt lat="43.25214" lon="-1.05287">
        <ele>180.92</ele>
        <time>2021-08-05T15:40:12Z</time>
      </trkpt>
      <trkpt lat="43.25136" lon="-1.05112">
        <ele>176.88</ele>
        <time>2021-08-05T15:40:19Z</time>
      </trkpt>
      <trkpt lat="43.25115" lon="-1.04978">
        <ele>172.99</ele>
        <time>2021-08-05T15:40:24Z</time>
      </trkpt>
      <trkpt lat="43.25121" lon="-1.04922">
        <ele>171.61</ele>
        <time>2021-08-05T15:40:26Z</time>
      </trkpt>
      <trkpt lat="43.25157" lon="-1.04762">
        <ele>169.15</ele>
        <time>2021-08-05T15:40:32Z</time>
      </trkpt>
      <trkpt lat="43.25246" lon="-1.04608">
        <ele>167.84</ele>
        <time>2021-08-05T15:40:39Z</time>
      </trkpt>
      <trkpt lat="43.25376" lon="-1.04484">
        <ele>164.39</ele>
        <time>2021-08-05T15:40:46Z</time>
      </trkpt>
      <trkpt lat="43.25523" lon="-1.04388">
        <ele>161.01</ele>
        <time>2021-08-05T15:40:53Z</time>
      </trkpt>
      <trkpt lat="43.25563" lon="-1.04362">
        <ele>160.25</ele>
        <time>2021-08-05T15:40:55Z</time>
      </trkpt>
      <trkpt lat="43.25659" lon="-1.04307">
        <ele>159.37</ele>
        <time>2021-08-05T15:41:00Z</time>
      </trkpt>
      <trkpt lat="43.25741" lon="-1.04227">
        <ele>155.19</ele>
        <time>2021-08-05T15:41:05Z</time>
      </trkpt>
      <trkpt lat="43.25813" lon="-1.04153">
        <ele>151.81</ele>
        <time>2021-08-05T15:41:10Z</time>
      </trkpt>
      <trkpt lat="43.25954" lon="-1.0409">
        <ele>150.36</ele>
        <time>2021-08-05T15:41:18Z</time>
      </trkpt>
      <trkpt lat="43.26147" lon="-1.04026">
        <ele>150.4</ele>
        <time>2021-08-05T15:41:27Z</time>
      </trkpt>
      <trkpt lat="43.26452" lon="-1.0393">
        <ele>147.24</ele>
        <time>2021-08-05T15:41:42Z</time>
      </trkpt>
      <trkpt lat="43.2666" lon="-1.0384">
        <ele>144.77</ele>
        <time>2021-08-05T15:41:52Z</time>
      </trkpt>
      <trkpt lat="43.26811" lon="-1.03688">
        <ele>143.79</ele>
        <time>2021-08-05T15:42:01Z</time>
      </trkpt>
      <trkpt lat="43.26846" lon="-1.03586">
        <ele>143.45</ele>
        <time>2021-08-05T15:42:05Z</time>
      </trkpt>
      <trkpt lat="43.26855" lon="-1.03533">
        <ele>144.01</ele>
        <time>2021-08-05T15:42:07Z</time>
      </trkpt>
      <trkpt lat="43.26909" lon="-1.03424">
        <ele>147.17</ele>
        <time>2021-08-05T15:42:12Z</time>
      </trkpt>
      <trkpt lat="43.26997" lon="-1.03301">
        <ele>150.97</ele>
        <time>2021-08-05T15:42:18Z</time>
      </trkpt>
      <trkpt lat="43.27135" lon="-1.03154">
        <ele>151.53</ele>
        <time>2021-08-05T15:42:26Z</time>
      </trkpt>
      <trkpt lat="43.27247" lon="-1.03054">
        <ele>148.06</ele>
        <time>2021-08-05T15:42:32Z</time>
      </trkpt>
      <trkpt lat="43.27325" lon="-1.02971">
        <ele>144.56</ele>
        <time>2021-08-05T15:42:37Z</time>
      </trkpt>
      <trkpt lat="43.27376" lon="-1.02915">
        <ele>141.43</ele>
        <time>2021-08-05T15:42:41Z</time>
      </trkpt>
      <trkpt lat="43.27476" lon="-1.02843">
        <ele>138.19</ele>
        <time>2021-08-05T15:42:48Z</time>
      </trkpt>
      <trkpt lat="43.27552" lon="-1.02777">
        <ele>137.58</ele>
        <time>2021-08-05T15:42:53Z</time>
      </trkpt>
      <trkpt lat="43.276" lon="-1.02683">
        <ele>137.57</ele>
        <time>2021-08-05T15:42:57Z</time>
      </trkpt>
      <trkpt lat="43.27626" lon="-1.0252">
        <ele>138.52</ele>
        <time>2021-08-05T15:43:03Z</time>
      </trkpt>
      <trkpt lat="43.27619" lon="-1.02444">
        <ele>139.34</ele>
        <time>2021-08-05T15:43:06Z</time>
      </trkpt>
      <trkpt lat="43.2766" lon="-1.0231">
        <ele>141.31</ele>
        <time>2021-08-05T15:43:12Z</time>
      </trkpt>
      <trkpt lat="43.27705" lon="-1.02274">
        <ele>141.77</ele>
        <time>2021-08-05T15:43:15Z</time>
      </trkpt>
      <trkpt lat="43.2782" lon="-1.02213">
        <ele>138.91</ele>
        <time>2021-08-05T15:43:24Z</time>
      </trkpt>
      <trkpt lat="43.27934" lon="-1.02143">
        <ele>135.92</ele>
        <time>2021-08-05T15:43:33Z</time>
      </trkpt>
      <trkpt lat="43.28047" lon="-1.02046">
        <ele>135.47</ele>
        <time>2021-08-05T15:43:42Z</time>
      </trkpt>
      <trkpt lat="43.28158" lon="-1.01902">
        <ele>135.65</ele>
        <time>2021-08-05T15:43:51Z</time>
      </trkpt>
      <trkpt lat="43.2819" lon="-1.0184">
        <ele>135.55</ele>
        <time>2021-08-05T15:43:54Z</time>
      </trkpt>
      <trkpt lat="43.28233" lon="-1.01629">
        <ele>135.04</ele>
        <time>2021-08-05T15:44:02Z</time>
      </trkpt>
      <trkpt lat="43.28244" lon="-1.01524">
        <ele>134.68</ele>
        <time>2021-08-05T15:44:06Z</time>
      </trkpt>
      <trkpt lat="43.28312" lon="-1.01422">
        <ele>134.68</ele>
        <time>2021-08-05T15:44:12Z</time>
      </trkpt>
      <trkpt lat="43.28383" lon="-1.01426">
        <ele>136.48</ele>
        <time>2021-08-05T15:44:16Z</time>
      </trkpt>
      <trkpt lat="43.28401" lon="-1.01436">
        <ele>136.92</ele>
        <time>2021-08-05T15:44:17Z</time>
      </trkpt>
      <trkpt lat="43.28515" lon="-1.01511">
        <ele>137.17</ele>
        <time>2021-08-05T15:44:23Z</time>
      </trkpt>
      <trkpt lat="43.28571" lon="-1.01584">
        <ele>135.22</ele>
        <time>2021-08-05T15:44:27Z</time>
      </trkpt>
      <trkpt lat="43.28605" lon="-1.01657">
        <ele>134.5</ele>
        <time>2021-08-05T15:44:30Z</time>
      </trkpt>
      <trkpt lat="43.28692" lon="-1.01742">
        <ele>133.24</ele>
        <time>2021-08-05T15:44:35Z</time>
      </trkpt>
      <trkpt lat="43.28893" lon="-1.01809">
        <ele>132.57</ele>
        <time>2021-08-05T15:44:44Z</time>
      </trkpt>
      <trkpt lat="43.29064" lon="-1.01784">
        <ele>130.94</ele>
        <time>2021-08-05T15:44:51Z</time>
      </trkpt>
      <trkpt lat="43.2935" lon="-1.01742">
        <ele>132.72</ele>
        <time>2021-08-05T15:45:02Z</time>
      </trkpt>
      <trkpt lat="43.2947" lon="-1.01731">
        <ele>136.06</ele>
        <time>2021-08-05T15:45:07Z</time>
      </trkpt>
      <trkpt lat="43.29614" lon="-1.01689">
        <ele>139.14</ele>
        <time>2021-08-05T15:45:13Z</time>
      </trkpt>
      <trkpt lat="43.29775" lon="-1.01673">
        <ele>138.99</ele>
        <time>2021-08-05T15:45:20Z</time>
      </trkpt>
      <trkpt lat="43.29944" lon="-1.01678">
        <ele>135.84</ele>
        <time>2021-08-05T15:45:28Z</time>
      </trkpt>
      <trkpt lat="43.30059" lon="-1.01602">
        <ele>132.22</ele>
        <time>2021-08-05T15:45:34Z</time>
      </trkpt>
      <trkpt lat="43.30151" lon="-1.01517">
        <ele>128.54</ele>
        <time>2021-08-05T15:45:39Z</time>
      </trkpt>
      <trkpt lat="43.30239" lon="-1.01418">
        <ele>125.27</ele>
        <time>2021-08-05T15:45:44Z</time>
      </trkpt>
      <trkpt lat="43.30295" lon="-1.01322">
        <ele>122.2</ele>
        <time>2021-08-05T15:45:48Z</time>
      </trkpt>
      <trkpt lat="43.30343" lon="-1.0123">
        <ele>119.05</ele>
        <time>2021-08-05T15:45:52Z</time>
      </trkpt>
      <trkpt lat="43.30433" lon="-1.01116">
        <ele>115.81</ele>
        <time>2021-08-05T15:45:58Z</time>
      </trkpt>
      <trkpt lat="43.30554" lon="-1.00992">
        <ele>113.94</ele>
        <time>2021-08-05T15:46:06Z</time>
      </trkpt>
      <trkpt lat="43.30619" lon="-1.00975">
        <ele>113.48</ele>
        <time>2021-08-05T15:46:10Z</time>
      </trkpt>
      <trkpt lat="43.3067" lon="-1.00973">
        <ele>113.22</ele>
        <time>2021-08-05T15:46:13Z</time>
      </trkpt>
      <trkpt lat="43.3074" lon="-1.00941">
        <ele>113.28</ele>
        <time>2021-08-05T15:46:17Z</time>
      </trkpt>
      <trkpt lat="43.30936" lon="-1.00799">
        <ele>115.8</ele>
        <time>2021-08-05T15:46:28Z</time>
      </trkpt>
      <trkpt lat="43.31071" lon="-1.00748">
        <ele>116.82</ele>
        <time>2021-08-05T15:46:35Z</time>
      </trkpt>
      <trkpt lat="43.31179" lon="-1.00784">
        <ele>117.54</ele>
        <time>2021-08-05T15:46:41Z</time>
      </trkpt>
      <trkpt lat="43.31255" lon="-1.00897">
        <ele>118.17</ele>
        <time>2021-08-05T15:46:47Z</time>
      </trkpt>
      <trkpt lat="43.31263" lon="-1.00921">
        <ele>118.26</ele>
        <time>2021-08-05T15:46:48Z</time>
      </trkpt>
      <trkpt lat="43.31348" lon="-1.01223">
        <ele>117.45</ele>
        <time>2021-08-05T15:47:02Z</time>
      </trkpt>
      <trkpt lat="43.31376" lon="-1.01326">
        <ele>116.55</ele>
        <time>2021-08-05T15:47:08Z</time>
      </trkpt>
      <trkpt lat="43.31426" lon="-1.01369">
        <ele>113.52</ele>
        <time>2021-08-05T15:47:15Z</time>
      </trkpt>
      <trkpt lat="43.31512" lon="-1.01367">
        <ele>111.54</ele>
        <time>2021-08-05T15:47:22Z</time>
      </trkpt>
      <trkpt lat="43.31647" lon="-1.01329">
        <ele>108.59</ele>
        <time>2021-08-05T15:47:29Z</time>
      </trkpt>
      <trkpt lat="43.31756" lon="-1.0135">
        <ele>106.5</ele>
        <time>2021-08-05T15:47:34Z</time>
      </trkpt>
      <trkpt lat="43.32043" lon="-1.01528">
        <ele>108.12</ele>
        <time>2021-08-05T15:47:47Z</time>
      </trkpt>
      <trkpt lat="43.32162" lon="-1.01701">
        <ele>109.53</ele>
        <time>2021-08-05T15:47:54Z</time>
      </trkpt>
      <trkpt lat="43.32259" lon="-1.01957">
        <ele>108.85</ele>
        <time>2021-08-05T15:48:02Z</time>
      </trkpt>
      <trkpt lat="43.32329" lon="-1.02144">
        <ele>107.03</ele>
        <time>2021-08-05T15:48:08Z</time>
      </trkpt>
      <trkpt lat="43.32431" lon="-1.02261">
        <ele>105.53</ele>
        <time>2021-08-05T15:48:14Z</time>
      </trkpt>
      <trkpt lat="43.32543" lon="-1.02308">
        <ele>108.7</ele>
        <time>2021-08-05T15:48:21Z</time>
      </trkpt>
      <trkpt lat="43.32553" lon="-1.02312">
        <ele>109.19</ele>
        <time>2021-08-05T15:48:22Z</time>
      </trkpt>
      <trkpt lat="43.32583" lon="-1.02306">
        <ele>110.64</ele>
        <time>2021-08-05T15:48:29Z</time>
      </trkpt>
      <trkpt lat="43.32636" lon="-1.02284">
        <ele>111.29</ele>
        <time>2021-08-05T15:48:35Z</time>
      </trkpt>
      <trkpt lat="43.32642" lon="-1.02269">
        <ele>111.35</ele>
        <time>2021-08-05T15:48:36Z</time>
      </trkpt>
      <trkpt lat="43.32647" lon="-1.02253">
        <ele>111.4</ele>
        <time>2021-08-05T15:48:37Z</time>
      </trkpt>
      <trkpt lat="43.32699" lon="-1.02114">
        <ele>112.85</ele>
        <time>2021-08-05T15:48:44Z</time>
      </trkpt>
      <trkpt lat="43.3272" lon="-1.02066">
        <ele>113.32</ele>
        <time>2021-08-05T15:48:46Z</time>
      </trkpt>
      <trkpt lat="43.32851" lon="-1.01913">
        <ele>113.51</ele>
        <time>2021-08-05T15:48:54Z</time>
      </trkpt>
      <trkpt lat="43.32962" lon="-1.01755">
        <ele>110.48</ele>
        <time>2021-08-05T15:49:01Z</time>
      </trkpt>
      <trkpt lat="43.33018" lon="-1.0167">
        <ele>109.51</ele>
        <time>2021-08-05T15:49:05Z</time>
      </trkpt>
      <trkpt lat="43.33113" lon="-1.01609">
        <ele>109.77</ele>
        <time>2021-08-05T15:49:10Z</time>
      </trkpt>
      <trkpt lat="43.33294" lon="-1.01538">
        <ele>113.34</ele>
        <time>2021-08-05T15:49:19Z</time>
      </trkpt>
      <trkpt lat="43.33404" lon="-1.0149">
        <ele>116.48</ele>
        <time>2021-08-05T15:49:25Z</time>
      </trkpt>
      <trkpt lat="43.33517" lon="-1.01441">
        <ele>119.77</ele>
        <time>2021-08-05T15:49:31Z</time>
      </trkpt>
      <trkpt lat="43.33638" lon="-1.01391">
        <ele>122.98</ele>
        <time>2021-08-05T15:49:37Z</time>
      </trkpt>
      <trkpt lat="43.33779" lon="-1.01337">
        <ele>126.95</ele>
        <time>2021-08-05T15:49:44Z</time>
      </trkpt>
      <trkpt lat="43.33925" lon="-1.01281">
        <ele>129.95</ele>
        <time>2021-08-05T15:49:51Z</time>
      </trkpt>
      <trkpt lat="43.3412" lon="-1.01164">
        <ele>131.38</ele>
        <time>2021-08-05T15:50:01Z</time>
      </trkpt>
      <trkpt lat="43.34283" lon="-1.0099">
        <ele>129.31</ele>
        <time>2021-08-05T15:50:11Z</time>
      </trkpt>
      <trkpt lat="43.3444" lon="-1.00782">
        <ele>126.16</ele>
        <time>2021-08-05T15:50:22Z</time>
      </trkpt>
      <trkpt lat="43.34591" lon="-1.00583">
        <ele>126.63</ele>
        <time>2021-08-05T15:50:33Z</time>
      </trkpt>
      <trkpt lat="43.34669" lon="-1.0044">
        <ele>130.1</ele>
        <time>2021-08-05T15:50:40Z</time>
      </trkpt>
      <trkpt lat="43.34688" lon="-1.00362">
        <ele>131.83</ele>
        <time>2021-08-05T15:50:43Z</time>
      </trkpt>
      <trkpt lat="43.34691" lon="-1.00223">
        <ele>135.72</ele>
        <time>2021-08-05T15:50:48Z</time>
      </trkpt>
      <trkpt lat="43.34674" lon="-1.00054">
        <ele>139.23</ele>
        <time>2021-08-05T15:50:54Z</time>
      </trkpt>
      <trkpt lat="43.34652" lon="-0.99848">
        <ele>142.24</ele>
        <time>2021-08-05T15:51:01Z</time>
      </trkpt>
      <trkpt lat="43.34647" lon="-0.99675">
        <ele>145.35</ele>
        <time>2021-08-05T15:51:07Z</time>
      </trkpt>
      <trkpt lat="43.34667" lon="-0.99532">
        <ele>148.38</ele>
        <time>2021-08-05T15:51:12Z</time>
      </trkpt>
      <trkpt lat="43.34697" lon="-0.99391">
        <ele>151.99</ele>
        <time>2021-08-05T15:51:17Z</time>
      </trkpt>
      <trkpt lat="43.34734" lon="-0.9922">
        <ele>155.16</ele>
        <time>2021-08-05T15:51:23Z</time>
      </trkpt>
      <trkpt lat="43.34741" lon="-0.99191">
        <ele>155.43</ele>
        <time>2021-08-05T15:51:24Z</time>
      </trkpt>
      <trkpt lat="43.34779" lon="-0.98924">
        <ele>158.01</ele>
        <time>2021-08-05T15:51:33Z</time>
      </trkpt>
      <trkpt lat="43.3478" lon="-0.9864">
        <ele>161.39</ele>
        <time>2021-08-05T15:51:42Z</time>
      </trkpt>
      <trkpt lat="43.34783" lon="-0.98371">
        <ele>164.74</ele>
        <time>2021-08-05T15:51:51Z</time>
      </trkpt>
      <trkpt lat="43.34785" lon="-0.98221">
        <ele>167.74</ele>
        <time>2021-08-05T15:51:56Z</time>
      </trkpt>
      <trkpt lat="43.34786" lon="-0.98079">
        <ele>171.16</ele>
        <time>2021-08-05T15:52:01Z</time>
      </trkpt>
      <trkpt lat="43.34795" lon="-0.97952">
        <ele>174.76</ele>
        <time>2021-08-05T15:52:06Z</time>
      </trkpt>
      <trkpt lat="43.34832" lon="-0.97838">
        <ele>178.2</ele>
        <time>2021-08-05T15:52:11Z</time>
      </trkpt>
      <trkpt lat="43.34894" lon="-0.97737">
        <ele>181.34</ele>
        <time>2021-08-05T15:52:16Z</time>
      </trkpt>
      <trkpt lat="43.3506" lon="-0.9751">
        <ele>183.29</ele>
        <time>2021-08-05T15:52:27Z</time>
      </trkpt>
      <trkpt lat="43.35265" lon="-0.97249">
        <ele>184.99</ele>
        <time>2021-08-05T15:52:41Z</time>
      </trkpt>
      <trkpt lat="43.35352" lon="-0.9721">
        <ele>188.22</ele>
        <time>2021-08-05T15:52:46Z</time>
      </trkpt>
      <trkpt lat="43.35473" lon="-0.97167">
        <ele>191.4</ele>
        <time>2021-08-05T15:52:53Z</time>
      </trkpt>
      <trkpt lat="43.35695" lon="-0.97057">
        <ele>188.07</ele>
        <time>2021-08-05T15:53:06Z</time>
      </trkpt>
      <trkpt lat="43.3577" lon="-0.97016">
        <ele>184.18</ele>
        <time>2021-08-05T15:53:10Z</time>
      </trkpt>
      <trkpt lat="43.35826" lon="-0.96977">
        <ele>180.23</ele>
        <time>2021-08-05T15:53:13Z</time>
      </trkpt>
      <trkpt lat="43.35881" lon="-0.96932">
        <ele>175.97</ele>
        <time>2021-08-05T15:53:16Z</time>
      </trkpt>
      <trkpt lat="43.35931" lon="-0.96888">
        <ele>171.45</ele>
        <time>2021-08-05T15:53:19Z</time>
      </trkpt>
      <trkpt lat="43.35964" lon="-0.96863">
        <ele>168.19</ele>
        <time>2021-08-05T15:53:21Z</time>
      </trkpt>
      <trkpt lat="43.36018" lon="-0.96832">
        <ele>163.93</ele>
        <time>2021-08-05T15:53:24Z</time>
      </trkpt>
      <trkpt lat="43.36082" lon="-0.96804">
        <ele>159.96</ele>
        <time>2021-08-05T15:53:27Z</time>
      </trkpt>
      <trkpt lat="43.36154" lon="-0.96775">
        <ele>156.6</ele>
        <time>2021-08-05T15:53:30Z</time>
      </trkpt>
      <trkpt lat="43.36228" lon="-0.96746">
        <ele>153.16</ele>
        <time>2021-08-05T15:53:33Z</time>
      </trkpt>
      <trkpt lat="43.36298" lon="-0.96715">
        <ele>150.14</ele>
        <time>2021-08-05T15:53:36Z</time>
      </trkpt>
      <trkpt lat="43.36354" lon="-0.96676">
        <ele>146.94</ele>
        <time>2021-08-05T15:53:39Z</time>
      </trkpt>
      <trkpt lat="43.36402" lon="-0.96628">
        <ele>143.85</ele>
        <time>2021-08-05T15:53:42Z</time>
      </trkpt>
      <trkpt lat="43.36459" lon="-0.9656">
        <ele>140.64</ele>
        <time>2021-08-05T15:53:46Z</time>
      </trkpt>
      <trkpt lat="43.36519" lon="-0.96471">
        <ele>137.14</ele>
        <time>2021-08-05T15:53:51Z</time>
      </trkpt>
      <trkpt lat="43.3661" lon="-0.96318">
        <ele>133.97</ele>
        <time>2021-08-05T15:53:59Z</time>
      </trkpt>
      <trkpt lat="43.36705" lon="-0.96139">
        <ele>132.09</ele>
        <time>2021-08-05T15:54:06Z</time>
      </trkpt>
      <trkpt lat="43.3683" lon="-0.95915">
        <ele>129.82</ele>
        <time>2021-08-05T15:54:15Z</time>
      </trkpt>
      <trkpt lat="43.36959" lon="-0.95786">
        <ele>127.41</ele>
        <time>2021-08-05T15:54:22Z</time>
      </trkpt>
      <trkpt lat="43.37168" lon="-0.95636">
        <ele>124.36</ele>
        <time>2021-08-05T15:54:33Z</time>
      </trkpt>
      <trkpt lat="43.37279" lon="-0.95505">
        <ele>121.84</ele>
        <time>2021-08-05T15:54:40Z</time>
      </trkpt>
      <trkpt lat="43.37403" lon="-0.95269">
        <ele>119.81</ele>
        <time>2021-08-05T15:54:51Z</time>
      </trkpt>
      <trkpt lat="43.37557" lon="-0.94987">
        <ele>119.28</ele>
        <time>2021-08-05T15:55:05Z</time>
      </trkpt>
      <trkpt lat="43.37649" lon="-0.94928">
        <ele>118.9</ele>
        <time>2021-08-05T15:55:11Z</time>
      </trkpt>
      <trkpt lat="43.37794" lon="-0.94898">
        <ele>118.05</ele>
        <time>2021-08-05T15:55:19Z</time>
      </trkpt>
      <trkpt lat="43.37885" lon="-0.9492">
        <ele>116.99</ele>
        <time>2021-08-05T15:55:24Z</time>
      </trkpt>
      <trkpt lat="43.37956" lon="-0.9496">
        <ele>114.54</ele>
        <time>2021-08-05T15:55:28Z</time>
      </trkpt>
      <trkpt lat="43.38031" lon="-0.94974">
        <ele>110.64</ele>
        <time>2021-08-05T15:55:32Z</time>
      </trkpt>
      <trkpt lat="43.3809" lon="-0.94972">
        <ele>107.45</ele>
        <time>2021-08-05T15:55:36Z</time>
      </trkpt>
      <trkpt lat="43.3813" lon="-0.94972">
        <ele>105.66</ele>
        <time>2021-08-05T15:55:40Z</time>
      </trkpt>
      <trkpt lat="43.38221" lon="-0.94952">
        <ele>106.34</ele>
        <time>2021-08-05T15:55:48Z</time>
      </trkpt>
      <trkpt lat="43.38282" lon="-0.94908">
        <ele>109.62</ele>
        <time>2021-08-05T15:55:56Z</time>
      </trkpt>
      <trkpt lat="43.38333" lon="-0.94868">
        <ele>112.87</ele>
        <time>2021-08-05T15:56:04Z</time>
      </trkpt>
      <trkpt lat="43.38385" lon="-0.94829">
        <ele>115.26</ele>
        <time>2021-08-05T15:56:11Z</time>
      </trkpt>
      <trkpt lat="43.38394" lon="-0.94825">
        <ele>115.59</ele>
        <time>2021-08-05T15:56:12Z</time>
      </trkpt>
      <trkpt lat="43.38479" lon="-0.94782">
        <ele>117.02</ele>
        <time>2021-08-05T15:56:21Z</time>
      </trkpt>
      <trkpt lat="43.38549" lon="-0.94694">
        <ele>116.73</ele>
        <time>2021-08-05T15:56:35Z</time>
      </trkpt>
      <trkpt lat="43.38634" lon="-0.94605">
        <ele>116.86</ele>
        <time>2021-08-05T15:56:49Z</time>
      </trkpt>
      <trkpt lat="43.38737" lon="-0.94528">
        <ele>117.15</ele>
        <time>2021-08-05T15:57:04Z</time>
      </trkpt>
      <trkpt lat="43.3883" lon="-0.9447">
        <ele>117.29</ele>
        <time>2021-08-05T15:57:17Z</time>
      </trkpt>
      <trkpt lat="43.38892" lon="-0.94431">
        <ele>117.04</ele>
        <time>2021-08-05T15:57:29Z</time>
      </trkpt>
      <trkpt lat="43.38909" lon="-0.9442">
        <ele>116.6</ele>
        <time>2021-08-05T15:57:42Z</time>
      </trkpt>
      <trkpt lat="43.38916" lon="-0.9441">
        <ele>116.62</ele>
        <time>2021-08-05T15:57:45Z</time>
      </trkpt>
      <trkpt lat="43.38928" lon="-0.94377">
        <ele>116.68</ele>
        <time>2021-08-05T15:57:53Z</time>
      </trkpt>
    </trkseg>
  </trk>
</gpx>